FR2156 / EI-DPF 7700 Squawk Report (4th of December, 2019)

Aircraft B738 Reg No. EI-DPF Age 13 years old
Model 737 Jet engines 2 First flight 08-01-07
Registered 23-01-07 Rollout 20-12-06 Delivered 23-01-07
Construction No. 33606 Line No. 2158 Series 8AS
ADSHEX 4CA4EA Airline name Ryanair Owner N/A
Airfield based Dublin~Co Dublin~EI First tracked 2017-07-13 08:46:00

Flight history for EI-DPF

Route Flight No Date Playback
Porto (OPO) - Nuremberg (NUE) FR8515 2020-01-18 21:58:00
Nuremberg (NUE) - Porto (OPO) FR8516 2020-01-18 18:37:00
Copenhagen Airport (CPH) - Nuremberg (NUE) FR6449 2020-01-18 14:37:00
Nuremberg (NUE) - Copenhagen Airport (CPH) FR6448 2020-01-18 12:31:00
Makedonia (SKG) - Nuremberg (NUE) FR4485 2020-01-18 11:26:00
Nuremberg (NUE) - Makedonia (SKG) FR4484 2020-01-18 08:05:00
Ciampino (CIA) - Nuremberg (NUE) FR8318 2020-01-17 22:27:00
???? N/A 2020-01-17 21:03:00
Budapest Ferenc Liszt (BUD) - Nuremberg (NUE) FR8399 2020-01-17 18:24:00
Nuremberg (NUE) - Budapest Ferenc Liszt (BUD) FR8398 2020-01-17 17:15:00
Capodichino (NAP) - Nuremberg (NUE) FR2739 2020-01-17 15:32:00
Nuremberg (NUE) - Capodichino (NAP) FR2738 2020-01-17 11:20:00
Stansted (STN) - Nuremberg (NUE) FR8119 2020-01-17 09:05:00
Nuremberg (NUE) - Stansted (STN) FR8120 2020-01-17 07:53:00
Kaunas Intl (KUN) - Nuremberg (NUE) FR1761 2020-01-15 13:52:00
???? N/A 2020-01-15 12:12:00
Stansted (STN) - Nuremberg (NUE) FR8119 2020-01-15 09:07:00
Nuremberg (NUE) - Stansted (STN) FR8120 2020-01-15 07:50:00
Makedonia (SKG) - Nuremberg (NUE) FR4485 2020-01-14 21:49:00
Nuremberg (NUE) - Makedonia (SKG) FR4484 2020-01-14 18:35:00
Time Lat Lon Altitude Heading Speed Vertical Rate
2019-12-04 16:54:29 GMT 43.696445 -2.900914 19,750 149 416 -2624
2019-12-04 16:54:25 GMT 43.703381 -2.906472 19,925 149 417 -2560
2019-12-04 16:54:12 GMT 43.724331 -2.923540 20,500 149 421 -2688
2019-12-04 16:54:05 GMT 43.737534 -2.934372 20,850 149 424 -2688
2019-12-04 16:53:53 GMT 43.756714 -2.950148 21,375 149 428 -2816
2019-12-04 16:53:44 GMT 43.772232 -2.962859 21,775 149 432 -2688
2019-12-04 16:53:34 GMT 43.789875 -2.977491 22,250 149 436 -2752
2019-12-04 16:53:23 GMT 43.808357 -2.992728 22,750 149 441 -2816
2019-12-04 16:53:14 GMT 43.826431 -3.007571 23,225 149 444 -2816
2019-12-04 16:53:03 GMT 43.844055 -3.022134 23,700 149 449 -2816
2019-12-04 16:52:52 GMT 43.863380 -3.038112 24,200 149 453 -3008
2019-12-04 16:52:42 GMT 43.882462 -3.053752 24,725 149 458 -2816
2019-12-04 16:52:32 GMT 43.899319 -3.067605 25,150 149 463 -2880
2019-12-04 16:52:21 GMT 43.920914 -3.085370 29,250 149 393 -960
2019-12-04 16:52:10 GMT 43.941029 -3.101807 26,275 149 468 -2944
2019-12-04 16:51:00 GMT 44.066673 -3.204738 30,575 149 393 -960
2019-12-04 16:50:10 GMT 44.145676 -3.269902 31,375 149 396 -1024
2019-12-04 16:49:53 GMT 44.173557 -3.293152 31,975 148 395 -1024
2019-12-04 16:49:47 GMT 44.182297 -3.300433 31,750 148 398 -1024
2019-12-04 16:49:38 GMT 44.195530 -3.311373 31,900 150 397 -1024
2019-12-04 16:49:35 GMT 44.201065 -3.315582 31,975 154 398 -1024
2019-12-04 16:49:19 GMT 44.227325 -3.332274 32,075 158 399 -1024
2019-12-04 16:49:16 GMT 44.232559 -3.335070 32,300 158 399 -1024
2019-12-04 16:49:01 GMT 44.257957 -3.348820 32,550 158 399 -1024
2019-12-04 16:48:53 GMT 44.271835 -3.356389 32,675 158 402 -1024
2019-12-04 16:48:43 GMT 44.289505 -3.365936 32,850 158 402 -1024
2019-12-04 16:47:37 GMT 44.405064 -3.427600 34,025 158 411 -1024
2019-12-04 16:47:30 GMT 44.416946 -3.433947 34,150 159 411 -1024
2019-12-04 16:47:23 GMT 44.431038 -3.441467 34,275 159 411 -1024
2019-12-04 16:47:12 GMT 44.450409 -3.451865 34,475 158 410 -1024
2019-12-04 16:47:01 GMT 44.469444 -3.462100 34,650 158 410 -1024
2019-12-04 16:46:50 GMT 44.489044 -3.472726 34,850 158 410 -1024
2019-12-04 16:46:40 GMT 44.506989 -3.482535 35,025 158 412 -1088
2019-12-04 16:46:30 GMT 44.523212 -3.491308 35,175 158 415 -1024
2019-12-04 16:46:20 GMT 44.541134 -3.501021 35,350 158 417 -1088
2019-12-04 16:46:05 GMT 44.569473 -3.516279 35,625 158 421 -1024
2019-12-04 16:45:59 GMT 44.579819 -3.521838 35,725 159 421 -1088
2019-12-04 16:45:49 GMT 44.598862 -3.532104 35,925 158 424 -1088
2019-12-04 16:45:37 GMT 44.619553 -3.543352 36,125 158 428 -1152
2019-12-04 16:45:17 GMT 44.657913 -3.564279 36,525 158 435 -1152
2019-12-04 16:45:02 GMT 44.684933 -3.578997 36,800 158 436 -1152
2019-12-04 16:44:57 GMT 44.695408 -3.584624 36,900 158 438 -1088
2019-12-04 16:44:46 GMT 44.715683 -3.595603 37,025 158 438 -64
2019-12-04 16:44:36 GMT 44.734745 -3.605994 37,025 158 435 64
2019-12-04 16:44:26 GMT 44.752670 -3.615810 37,025 158 433 0
2019-12-04 16:44:16 GMT 44.771847 -3.626426 37,025 158 430 0
2019-12-04 16:44:06 GMT 44.789818 -3.636475 37,025 158 427 0
2019-12-04 16:43:52 GMT 44.815933 -3.651188 37,000 158 426 0
2019-12-04 16:43:43 GMT 44.832916 -3.660801 37,000 158 426 0
2019-12-04 16:43:35 GMT 44.846970 -3.668714 37,000 158 426 0
2019-12-04 16:43:23 GMT 44.868488 -3.680755 37,025 158 426 0
2019-12-04 16:43:12 GMT 44.888763 -3.691668 37,025 159 425 0
2019-12-04 16:43:03 GMT 44.904968 -3.699908 37,025 160 426 0
2019-12-04 16:42:53 GMT 44.924168 -3.709360 37,000 160 425 64
2019-12-04 16:42:43 GMT 44.942833 -3.718537 37,000 160 424 0
2019-12-04 16:42:31 GMT 44.965210 -3.729531 37,000 160 424 0
2019-12-04 16:42:28 GMT 44.970932 -3.732343 37,000 160 423 0
2019-12-04 16:42:22 GMT 44.980957 -3.737313 37,000 160 423 0
2019-12-04 16:42:10 GMT 45.003067 -3.748234 37,000 160 423 0
2019-12-04 16:41:56 GMT 45.030586 -3.761813 37,000 160 422 0
2019-12-04 16:41:51 GMT 45.038177 -3.765564 37,000 160 422 0
2019-12-04 16:41:41 GMT 45.057724 -3.775144 37,000 160 422 0
2019-12-04 16:41:31 GMT 45.076126 -3.784201 37,000 160 422 0
2019-12-04 16:41:20 GMT 45.095306 -3.793815 37,000 160 422 -64
2019-12-04 16:41:10 GMT 45.114899 -3.802250 37,000 166 424 0
2019-12-04 16:41:00 GMT 45.133976 -3.807701 37,000 172 428 -64
2019-12-04 16:40:49 GMT 45.155914 -3.810621 37,025 178 431 -64
2019-12-04 16:40:39 GMT 45.176155 -3.809911 37,025 186 435 64
2019-12-04 16:40:29 GMT 45.195564 -3.806294 37,000 189 437 0
2019-12-04 16:40:18 GMT 45.217258 -3.801604 37,000 189 437 0
2019-12-04 16:40:09 GMT 45.236767 -3.797384 37,000 189 437 0
2019-12-04 16:39:58 GMT 45.257481 -3.793030 37,000 189 437 0
2019-12-04 16:39:46 GMT 45.281204 -3.788060 37,000 189 437 0
2019-12-04 16:39:37 GMT 45.300262 -3.784053 37,000 189 437 0
2019-12-04 16:39:33 GMT 45.308361 -3.782378 37,000 189 437 0
2019-12-04 16:39:27 GMT 45.320343 -3.779885 37,000 189 437 0
2019-12-04 16:39:13 GMT 45.348862 -3.773935 37,000 189 438 0
2019-12-04 16:39:07 GMT 45.360779 -3.771392 37,000 189 438 0
2019-12-04 16:39:03 GMT 45.369919 -3.769488 37,000 189 438 64
2019-12-04 16:38:55 GMT 45.384663 -3.766368 37,000 189 438 0
2019-12-04 16:38:51 GMT 45.392387 -3.764693 37,000 189 438 -128
2019-12-04 16:38:46 GMT 45.402649 -3.762490 37,000 189 439 0
2019-12-04 16:38:42 GMT 45.410080 -3.760942 37,000 189 439 0
2019-12-04 16:38:35 GMT 45.423206 -3.758061 37,025 189 439 0
2019-12-04 16:38:28 GMT 45.438942 -3.754645 37,025 189 440 0
2019-12-04 16:38:25 GMT 45.443783 -3.753573 37,025 189 440 0
2019-12-04 16:38:18 GMT 45.457993 -3.750523 37,025 189 440 0
2019-12-04 16:38:14 GMT 45.466187 -3.748757 37,025 189 440 0
2019-12-04 16:38:11 GMT 45.473110 -3.747276 37,025 189 440 0
2019-12-04 16:38:04 GMT 45.486843 -3.744328 37,025 189 440 0
2019-12-04 16:37:54 GMT 45.506535 -3.740108 37,025 189 440 64
2019-12-04 16:37:48 GMT 45.520596 -3.737160 37,000 189 441 0
2019-12-04 16:37:43 GMT 45.528488 -3.735482 37,000 189 441 0
2019-12-04 16:37:33 GMT 45.548012 -3.731438 37,000 189 441 0
2019-12-04 16:37:22 GMT 45.570499 -3.726700 37,000 189 441 -64
2019-12-04 16:37:13 GMT 45.589352 -3.722717 37,000 189 441 -64
2019-12-04 16:37:02 GMT 45.610580 -3.718185 37,000 189 441 0
2019-12-04 16:36:52 GMT 45.631481 -3.713722 37,000 189 441 0
2019-12-04 16:36:47 GMT 45.651810 -3.709293 37,000 189 443 0
2019-12-04 16:36:42 GMT 45.651810 -3.709293 37,000 189 443 0
2019-12-04 16:36:34 GMT 45.667877 -3.705809 37,000 189 442 0
2019-12-04 16:36:31 GMT 45.674915 -3.704315 37,025 189 442 0
2019-12-04 16:36:23 GMT 45.690277 -3.701019 37,025 189 442 0
2019-12-04 16:36:20 GMT 45.696487 -3.699646 37,025 189 442 0
2019-12-04 16:36:10 GMT 45.716766 -3.695292 37,025 189 443 0
2019-12-04 16:36:00 GMT 45.737366 -3.690803 37,025 189 443 0
2019-12-04 16:35:50 GMT 45.757370 -3.686449 37,000 189 443 0
2019-12-04 16:35:42 GMT 45.776001 -3.682363 37,000 189 443 0
2019-12-04 16:35:39 GMT 45.778309 -3.681862 37,000 189 443 0
2019-12-04 16:35:32 GMT 45.793396 -3.678544 37,000 189 443 0
2019-12-04 16:35:29 GMT 45.799999 -3.677124 37,000 189 443 0
2019-12-04 16:35:19 GMT 45.819122 -3.672850 37,000 189 443 -64
2019-12-04 16:35:12 GMT 45.836334 -3.669032 37,025 189 442 -64
2019-12-04 16:35:09 GMT 45.840454 -3.668129 37,025 189 442 -64
2019-12-04 16:35:01 GMT 45.856747 -3.664490 37,025 189 442 0
2019-12-04 16:34:58 GMT 45.861309 -3.663460 37,025 189 442 0
2019-12-04 16:34:50 GMT 45.884445 -3.658310 37,000 189 442 0
2019-12-04 16:34:38 GMT 45.903259 -3.654227 37,025 189 440 0
2019-12-04 16:34:26 GMT 45.926010 -3.649270 37,000 189 439 64
2019-12-04 16:34:16 GMT 45.947342 -3.644647 37,000 189 438 0
2019-12-04 16:34:06 GMT 45.966286 -3.640526 37,000 189 438 -64
2019-12-04 16:33:56 GMT 45.985886 -3.636207 37,025 189 437 0
2019-12-04 16:33:50 GMT 45.998795 -3.633393 37,000 189 437 0
2019-12-04 16:33:45 GMT 46.007904 -3.631450 37,000 189 437 0
2019-12-04 16:33:41 GMT 46.016701 -3.629471 37,000 189 437 0
2019-12-04 16:33:36 GMT 46.026943 -3.627274 37,000 189 437 0
2019-12-04 16:33:23 GMT 46.053383 -3.621506 37,000 189 436 0
2019-12-04 16:33:14 GMT 46.069748 -3.617985 37,000 189 436 0
2019-12-04 16:33:07 GMT 46.084488 -3.614837 37,000 189 436 0
2019-12-04 16:33:03 GMT 46.092628 -3.613060 37,000 189 436 0
2019-12-04 16:32:53 GMT 46.111572 -3.608940 37,000 189 436 0
2019-12-04 16:32:44 GMT 46.130707 -3.604820 37,000 189 437 0
2019-12-04 16:32:37 GMT 46.144905 -3.601730 37,000 189 437 0
2019-12-04 16:32:34 GMT 46.150223 -3.600635 37,000 189 437 0
2019-12-04 16:32:27 GMT 46.165421 -3.597286 37,000 189 437 0
2019-12-04 16:32:24 GMT 46.170914 -3.596080 37,000 189 437 0
2019-12-04 16:32:20 GMT 46.178879 -3.594405 37,000 189 437 0
2019-12-04 16:32:10 GMT 46.198929 -3.590051 37,000 189 437 0
2019-12-04 16:32:03 GMT 46.212341 -3.587103 37,000 189 438 0
2019-12-04 16:32:00 GMT 46.218552 -3.585732 37,000 189 438 0
2019-12-04 16:31:53 GMT 46.233490 -3.582481 37,000 189 439 0
2019-12-04 16:31:49 GMT 46.240540 -3.581007 37,000 189 439 0
2019-12-04 16:31:40 GMT 46.259491 -3.576854 37,000 189 440 0
2019-12-04 16:31:32 GMT 46.274647 -3.573509 37,000 189 441 0
2019-12-04 16:31:29 GMT 46.279861 -3.572342 37,025 189 441 -64
2019-12-04 16:31:22 GMT 46.295425 -3.568882 37,025 189 441 0
2019-12-04 16:31:19 GMT 46.301376 -3.567542 37,025 189 441 0
2019-12-04 16:31:12 GMT 46.315567 -3.564327 37,025 189 442 64
2019-12-04 16:31:09 GMT 46.330215 -3.561044 37,025 189 442 0
2019-12-04 16:31:04 GMT 46.330215 -3.561044 37,025 189 442 0
2019-12-04 16:30:59 GMT 46.340561 -3.558766 37,025 189 441 0
2019-12-04 16:30:54 GMT 46.350677 -3.556489 37,025 189 441 0
2019-12-04 16:30:49 GMT 46.361465 -3.554077 37,000 189 441 64
2019-12-04 16:30:44 GMT 46.371918 -3.551733 37,000 189 441 0
2019-12-04 16:30:39 GMT 46.381210 -3.549656 37,000 189 441 0
2019-12-04 16:30:30 GMT 46.399685 -3.545563 37,025 189 441 -64
2019-12-04 16:30:19 GMT 46.424637 -3.540001 37,025 189 441 0
2019-12-04 16:30:12 GMT 46.436787 -3.537254 37,025 189 441 0
2019-12-04 16:30:07 GMT 46.446716 -3.535052 37,000 189 441 0
2019-12-04 16:29:57 GMT 46.466721 -3.530594 37,000 189 440 0
2019-12-04 16:29:47 GMT 46.486042 -3.526268 37,000 189 433 0
2019-12-04 16:29:37 GMT 46.506432 -3.521736 37,000 189 438 0
2019-12-04 16:29:26 GMT 46.527740 -3.516965 37,000 189 437 0
2019-12-04 16:29:17 GMT 46.546509 -3.512744 37,000 189 436 0
2019-12-04 16:29:11 GMT 46.558823 -3.509931 37,000 189 432 0
2019-12-04 16:29:06 GMT 46.567692 -3.507935 37,000 189 434 0
2019-12-04 16:28:56 GMT 46.587620 -3.503471 37,000 189 433 0
2019-12-04 16:28:46 GMT 46.606937 -3.499146 37,000 189 433 0
2019-12-04 16:28:36 GMT 46.627029 -3.494657 37,000 189 433 0
2019-12-04 16:28:26 GMT 46.647438 -3.490150 37,000 189 431 0
2019-12-04 16:28:16 GMT 46.667221 -3.485748 37,000 189 431 0
2019-12-04 16:28:10 GMT 46.677933 -3.483403 37,000 189 431 0
2019-12-04 16:28:06 GMT 46.692673 -3.480187 37,000 189 434 -64
2019-12-04 16:27:58 GMT 46.708145 -3.476771 37,000 189 432 0
2019-12-04 16:27:47 GMT 46.723022 -3.473421 37,000 189 432 0
2019-12-04 16:27:44 GMT 46.744583 -3.468665 37,000 189 433 0
2019-12-04 16:27:37 GMT 46.744583 -3.468665 37,000 189 432 0
2019-12-04 16:27:31 GMT 46.754787 -3.466393 37,000 189 432 0
2019-12-04 16:27:27 GMT 46.762886 -3.464607 37,000 189 432 0
2019-12-04 16:27:22 GMT 46.772800 -3.462410 37,000 189 432 0
2019-12-04 16:27:17 GMT 46.783230 -3.460144 37,000 189 432 64
2019-12-04 16:27:07 GMT 46.817871 -3.452454 37,000 189 434 -64
2019-12-04 16:27:02 GMT 46.824005 -3.451114 37,000 189 434 -64
2019-12-04 16:26:56 GMT 46.824005 -3.451114 37,000 189 435 0
2019-12-04 16:26:53 GMT 46.830063 -3.449707 37,000 189 435 0
2019-12-04 16:26:49 GMT 46.838196 -3.447898 37,000 189 434 0
2019-12-04 16:26:46 GMT 46.845379 -3.446342 37,000 189 435 0
2019-12-04 16:26:43 GMT 46.849960 -3.445286 37,000 189 435 0
2019-12-04 16:26:39 GMT 46.858364 -3.443390 37,000 189 435 0
2019-12-04 16:26:36 GMT 46.864510 -3.442017 37,000 189 435 0
2019-12-04 16:26:30 GMT 46.883194 -3.437828 37,000 189 435 0
2019-12-04 16:26:23 GMT 46.890953 -3.436045 37,000 189 435 0
2019-12-04 16:26:15 GMT 46.915237 -3.430550 37,000 189 435 0
2019-12-04 16:26:10 GMT 46.915237 -3.430550 37,000 189 435 0
2019-12-04 16:26:06 GMT 46.924347 -3.428421 37,000 189 435 0
2019-12-04 16:26:01 GMT 46.935455 -3.425903 37,025 189 435 0
2019-12-04 16:25:56 GMT 46.944393 -3.423861 37,025 189 435 0
2019-12-04 16:25:50 GMT 46.956757 -3.421005 37,025 189 435 0
2019-12-04 16:25:47 GMT 46.962341 -3.419701 37,025 189 435 0
2019-12-04 16:25:44 GMT 46.971485 -3.417593 37,025 190 434 0
2019-12-04 16:25:41 GMT 46.983685 -3.414776 37,025 189 435 -64
2019-12-04 16:25:36 GMT 46.983685 -3.414776 37,025 189 435 -64
2019-12-04 16:25:33 GMT 46.990723 -3.413177 37,025 190 434 0
2019-12-04 16:25:29 GMT 46.997276 -3.411607 37,025 189 434 0
2019-12-04 16:25:25 GMT 47.006241 -3.409538 37,025 190 434 64
2019-12-04 16:25:19 GMT 47.016724 -3.407135 37,025 190 434 0
2019-12-04 16:25:16 GMT 47.023952 -3.405410 37,025 190 434 0
2019-12-04 16:25:09 GMT 47.037094 -3.402397 37,025 189 434 0
2019-12-04 16:25:06 GMT 47.043137 -3.401024 37,025 189 434 0
2019-12-04 16:25:03 GMT 47.050022 -3.399423 37,025 189 434 0
2019-12-04 16:25:00 GMT 47.055050 -3.398297 37,000 189 434 0
2019-12-04 16:24:57 GMT 47.060989 -3.396904 37,025 189 434 0
2019-12-04 16:24:54 GMT 47.066174 -3.395761 37,025 189 434 0
2019-12-04 16:24:51 GMT 47.073257 -3.394089 37,000 189 434 0
2019-12-04 16:24:48 GMT 47.079666 -3.392647 37,000 189 433 0
2019-12-04 16:24:44 GMT 47.087074 -3.390972 37,000 189 433 0
2019-12-04 16:24:38 GMT 47.103928 -3.387099 37,000 189 433 0
2019-12-04 16:24:35 GMT 47.103928 -3.387099 37,000 189 432 64
2019-12-04 16:24:32 GMT 47.111469 -3.385409 37,000 189 432 0
2019-12-04 16:24:28 GMT 47.117432 -3.384064 37,000 189 429 0
2019-12-04 16:24:25 GMT 47.123566 -3.382690 37,000 189 430 0
2019-12-04 16:24:22 GMT 47.136337 -3.379807 37,000 189 430 0
2019-12-04 16:24:19 GMT 47.136337 -3.379807 37,000 189 430 0
2019-12-04 16:24:16 GMT 47.143776 -3.378155 37,000 189 429 0
2019-12-04 16:24:13 GMT 47.149830 -3.376817 37,000 189 429 0
2019-12-04 16:24:07 GMT 47.160004 -3.374519 37,000 189 429 0
2019-12-04 16:24:04 GMT 47.166309 -3.373155 37,000 189 429 0
2019-12-04 16:23:58 GMT 47.178181 -3.370479 37,000 189 428 0
2019-12-04 16:23:55 GMT 47.183853 -3.369232 37,000 189 428 0
2019-12-04 16:23:52 GMT 47.189667 -3.367928 37,000 189 428 0
2019-12-04 16:23:48 GMT 47.197128 -3.366280 37,000 189 428 0
2019-12-04 16:23:45 GMT 47.205139 -3.364426 37,000 189 429 0
2019-12-04 16:23:38 GMT 47.215851 -3.362022 37,000 189 428 0
2019-12-04 16:23:35 GMT 47.221664 -3.360649 37,000 189 428 0
2019-12-04 16:23:31 GMT 47.229527 -3.358859 37,000 189 428 0
2019-12-04 16:23:27 GMT 47.237869 -3.356941 37,000 190 428 -64
2019-12-04 16:23:24 GMT 47.243446 -3.355689 37,000 190 428 0
2019-12-04 16:23:21 GMT 47.249542 -3.354210 37,000 190 428 0
2019-12-04 16:23:15 GMT 47.262066 -3.351323 37,000 190 428 0
2019-12-04 16:23:12 GMT 47.267002 -3.350196 37,000 190 428 0
2019-12-04 16:23:08 GMT 47.274635 -3.348436 37,000 189 428 0
2019-12-04 16:23:05 GMT 47.281631 -3.346848 37,000 189 428 0
2019-12-04 16:23:01 GMT 47.288136 -3.345337 37,000 189 428 0
2019-12-04 16:22:58 GMT 47.296097 -3.343506 37,000 189 427 0
2019-12-04 16:22:54 GMT 47.303421 -3.341835 37,000 189 427 0
2019-12-04 16:22:50 GMT 47.310108 -3.340266 37,000 189 427 0
2019-12-04 16:22:46 GMT 47.318626 -3.338365 37,000 189 426 0
2019-12-04 16:22:43 GMT 47.323700 -3.337166 37,000 189 426 0
2019-12-04 16:22:40 GMT 47.329475 -3.335900 37,000 189 426 0
2019-12-04 16:22:34 GMT 47.342556 -3.332872 37,025 189 426 0
2019-12-04 16:22:30 GMT 47.350143 -3.331181 37,000 189 426 0
2019-12-04 16:22:26 GMT 47.359547 -3.328998 37,000 189 426 0
2019-12-04 16:22:23 GMT 47.362526 -3.328364 37,000 189 426 0
2019-12-04 16:22:18 GMT 47.372910 -3.325974 37,000 189 426 0
2019-12-04 16:22:13 GMT 47.387421 -3.322678 37,000 189 427 0
2019-12-04 16:22:10 GMT 47.393234 -3.321373 37,000 189 426 0
2019-12-04 16:22:03 GMT 47.402187 -3.319280 37,000 189 425 0
2019-12-04 16:21:58 GMT 47.412003 -3.317047 37,000 189 425 -64
2019-12-04 16:21:55 GMT 47.417175 -3.315880 37,000 189 425 0
2019-12-04 16:21:52 GMT 47.422256 -3.314713 37,000 189 425 0
2019-12-04 16:21:48 GMT 47.431469 -3.312589 37,000 189 425 0
2019-12-04 16:21:43 GMT 47.441528 -3.310318 37,000 189 425 0
2019-12-04 16:21:36 GMT 47.455166 -3.307166 37,000 189 425 0
2019-12-04 16:21:32 GMT 47.461533 -3.305717 37,000 189 425 0
2019-12-04 16:21:29 GMT 47.467026 -3.304482 37,000 190 427 0
2019-12-04 16:21:26 GMT 47.475861 -3.302422 37,000 189 425 0
2019-12-04 16:21:23 GMT 47.480537 -3.301392 37,000 189 425 0
2019-12-04 16:21:20 GMT 47.486309 -3.300054 37,000 189 426 0
2019-12-04 16:21:16 GMT 47.492641 -3.298645 37,000 189 426 0
2019-12-04 16:21:12 GMT 47.501083 -3.296654 37,000 189 426 0
2019-12-04 16:21:08 GMT 47.510143 -3.294560 37,000 189 427 0
2019-12-04 16:21:03 GMT 47.527275 -3.290617 37,000 189 427 0
2019-12-04 16:21:00 GMT 47.527275 -3.290617 37,000 189 427 0
2019-12-04 16:20:55 GMT 47.534538 -3.288926 37,000 189 427 0
2019-12-04 16:20:52 GMT 47.550110 -3.285324 37,000 190 427 0
2019-12-04 16:20:47 GMT 47.550110 -3.285324 37,025 189 429 0
2019-12-04 16:20:44 GMT 47.555603 -3.284019 37,025 189 429 0
2019-12-04 16:20:41 GMT 47.560684 -3.282852 37,000 190 428 0
2019-12-04 16:20:37 GMT 47.569359 -3.280827 37,000 190 427 0
2019-12-04 16:20:31 GMT 47.580112 -3.278292 37,000 190 427 0
2019-12-04 16:20:27 GMT 47.588909 -3.276179 37,000 190 427 0
2019-12-04 16:20:24 GMT 47.594742 -3.274818 37,000 190 427 0
2019-12-04 16:20:21 GMT 47.600510 -3.273514 37,000 190 428 0
2019-12-04 16:20:16 GMT 47.609627 -3.271320 37,000 190 428 0
2019-12-04 16:20:11 GMT 47.625175 -3.267728 37,000 189 428 0
2019-12-04 16:20:08 GMT 47.632004 -3.266098 37,000 189 428 0
2019-12-04 16:20:05 GMT 47.632004 -3.266098 37,000 189 428 0
2019-12-04 16:20:02 GMT 47.638870 -3.264519 37,000 189 429 0
2019-12-04 16:19:56 GMT 47.651337 -3.261672 37,000 189 429 0
2019-12-04 16:19:53 GMT 47.655258 -3.260742 37,000 189 429 0
2019-12-04 16:19:49 GMT 47.668282 -3.257728 37,000 189 429 0
2019-12-04 16:19:41 GMT 47.678558 -3.255318 37,025 189 429 0
2019-12-04 16:19:38 GMT 47.686481 -3.253432 37,025 189 429 0
2019-12-04 16:19:34 GMT 47.692932 -3.251953 37,025 190 429 0
2019-12-04 16:19:31 GMT 47.698353 -3.250685 37,025 189 429 64
2019-12-04 16:19:25 GMT 47.709667 -3.248009 37,025 189 429 64
2019-12-04 16:19:21 GMT 47.718510 -3.245967 37,000 189 429 64
2019-12-04 16:19:17 GMT 47.728287 -3.243713 37,000 189 429 0
2019-12-04 16:19:14 GMT 47.731476 -3.242958 37,000 189 429 0
2019-12-04 16:19:11 GMT 47.737644 -3.241530 37,000 189 429 0
2019-12-04 16:19:06 GMT 47.746490 -3.239488 37,000 189 429 0
2019-12-04 16:19:03 GMT 47.753265 -3.237946 37,000 189 429 0
2019-12-04 16:19:00 GMT 47.758575 -3.236710 37,000 189 429 0
2019-12-04 16:18:57 GMT 47.765305 -3.235199 37,000 189 429 0
2019-12-04 16:18:54 GMT 47.770973 -3.233854 37,000 189 429 0
2019-12-04 16:18:51 GMT 47.777710 -3.232315 37,000 189 429 0
2019-12-04 16:18:46 GMT 47.785629 -3.230461 37,000 189 429 0
2019-12-04 16:18:42 GMT 47.794556 -3.228333 37,000 189 429 0
2019-12-04 16:18:39 GMT 47.800095 -3.227097 37,000 189 429 0
2019-12-04 16:18:35 GMT 47.808029 -3.225192 37,000 189 429 0
2019-12-04 16:18:32 GMT 47.812912 -3.224075 37,000 189 429 0
2019-12-04 16:18:28 GMT 47.827789 -3.220573 37,000 189 429 0
2019-12-04 16:18:25 GMT 47.827789 -3.220573 37,025 189 429 0
2019-12-04 16:18:22 GMT 47.832844 -3.219417 37,000 189 429 0
2019-12-04 16:18:19 GMT 47.845001 -3.216522 37,000 189 429 0
2019-12-04 16:18:16 GMT 47.845001 -3.216522 37,000 189 429 0
2019-12-04 16:18:12 GMT 47.852535 -3.214698 37,000 189 429 0
2019-12-04 16:18:08 GMT 47.860683 -3.212797 37,000 189 429 0
2019-12-04 16:18:05 GMT 47.867153 -3.211318 37,000 189 429 0
2019-12-04 16:18:02 GMT 47.871853 -3.210191 37,000 189 429 0
2019-12-04 16:17:59 GMT 47.877579 -3.208853 37,000 189 429 0
2019-12-04 16:17:55 GMT 47.885307 -3.207022 37,000 190 428 0
2019-12-04 16:17:52 GMT 47.892563 -3.205330 37,000 190 428 0
2019-12-04 16:17:49 GMT 47.897232 -3.204231 37,000 190 428 0
2019-12-04 16:17:43 GMT 47.916870 -3.199557 37,000 190 428 0
2019-12-04 16:17:40 GMT 47.916870 -3.199557 37,000 190 428 0
2019-12-04 16:17:35 GMT 47.928509 -3.196881 37,000 190 428 0
2019-12-04 16:17:32 GMT 47.930511 -3.196388 37,000 190 428 0
2019-12-04 16:17:29 GMT 47.937012 -3.194893 37,025 190 428 0
2019-12-04 16:17:26 GMT 47.950790 -3.191666 37,025 190 428 0
2019-12-04 16:17:22 GMT 47.957108 -3.190155 37,025 190 428 0
2019-12-04 16:17:19 GMT 47.957108 -3.190155 37,025 189 428 0
2019-12-04 16:17:15 GMT 47.963745 -3.188644 37,000 190 428 64
2019-12-04 16:17:11 GMT 47.971024 -3.186928 37,000 190 426 0
2019-12-04 16:17:08 GMT 47.976883 -3.185555 37,000 189 428 64
2019-12-04 16:17:05 GMT 47.992081 -3.181984 37,000 190 428 -64
2019-12-04 16:17:01 GMT 47.992081 -3.181984 37,000 190 428 -64
2019-12-04 16:16:58 GMT 47.996475 -3.180954 37,025 190 427 0
2019-12-04 16:16:55 GMT 48.003342 -3.179306 37,025 190 428 0
2019-12-04 16:16:49 GMT 48.015186 -3.176528 37,000 190 427 0
2019-12-04 16:16:45 GMT 48.023613 -3.174556 37,000 190 427 0
2019-12-04 16:16:41 GMT 48.030396 -3.172920 37,000 190 427 0
2019-12-04 16:16:38 GMT 48.035393 -3.171739 37,000 190 427 0
2019-12-04 16:16:34 GMT 48.044472 -3.169626 37,000 190 427 0
2019-12-04 16:16:30 GMT 48.058716 -3.166246 37,000 190 427 0
2019-12-04 16:16:27 GMT 48.058716 -3.166246 37,000 190 427 0
2019-12-04 16:16:24 GMT 48.062813 -3.165260 37,000 190 427 0
2019-12-04 16:16:21 GMT 48.069443 -3.163651 37,000 190 426 0
2019-12-04 16:16:18 GMT 48.075943 -3.162140 37,000 190 426 0
2019-12-04 16:16:15 GMT 48.082737 -3.160541 37,000 190 426 0
2019-12-04 16:16:09 GMT 48.093258 -3.158006 37,025 190 426 0
2019-12-04 16:16:04 GMT 48.101963 -3.155893 37,000 190 426 0
2019-12-04 16:16:01 GMT 48.108711 -3.154344 37,000 189 425 0
2019-12-04 16:15:58 GMT 48.114857 -3.152865 37,000 190 425 0
2019-12-04 16:15:54 GMT 48.122177 -3.151154 37,000 189 425 0
2019-12-04 16:15:49 GMT 48.132660 -3.148613 37,000 190 425 0
2019-12-04 16:15:44 GMT 48.148956 -3.144768 37,000 190 425 0
2019-12-04 16:15:40 GMT 48.157780 -3.142724 37,000 190 425 0
2019-12-04 16:15:37 GMT 48.157780 -3.142724 37,000 190 425 0
2019-12-04 16:15:33 GMT 48.162388 -3.141584 37,000 190 425 0
2019-12-04 16:15:30 GMT 48.168018 -3.140283 37,025 190 425 0
2019-12-04 16:15:27 GMT 48.180725 -3.137231 37,025 190 424 0
2019-12-04 16:15:24 GMT 48.189606 -3.135118 37,025 190 424 0
2019-12-04 16:15:19 GMT 48.189606 -3.135118 37,025 190 424 0
2019-12-04 16:15:15 GMT 48.197163 -3.133344 37,025 190 424 0
2019-12-04 16:15:12 GMT 48.202835 -3.132019 37,025 189 424 0
2019-12-04 16:15:09 GMT 48.208614 -3.130598 37,000 189 423 0
2019-12-04 16:15:05 GMT 48.216156 -3.128850 37,025 190 423 0
2019-12-04 16:15:02 GMT 48.223324 -3.127128 37,025 190 423 0
2019-12-04 16:14:59 GMT 48.227795 -3.126044 37,000 190 423 0
2019-12-04 16:14:56 GMT 48.233612 -3.124671 37,000 190 423 64
2019-12-04 16:14:53 GMT 48.239822 -3.123216 37,000 190 423 64
2019-12-04 16:14:50 GMT 48.245899 -3.121707 37,000 190 423 64
2019-12-04 16:14:47 GMT 48.260658 -3.118238 37,000 190 422 0
2019-12-04 16:14:43 GMT 48.260658 -3.118238 37,000 190 422 0
2019-12-04 16:14:40 GMT 48.265503 -3.117018 37,000 190 422 0
2019-12-04 16:14:37 GMT 48.271225 -3.115636 37,000 190 422 0
2019-12-04 16:14:33 GMT 48.281662 -3.113145 37,000 189 422 0
2019-12-04 16:14:29 GMT 48.291477 -3.110793 37,000 189 422 0
2019-12-04 16:14:22 GMT 48.300041 -3.108769 37,000 189 422 0
2019-12-04 16:14:18 GMT 48.306885 -3.107107 37,000 189 422 0
2019-12-04 16:14:15 GMT 48.312332 -3.105878 37,000 189 422 0
2019-12-04 16:14:12 GMT 48.327461 -3.102264 37,000 189 422 0
2019-12-04 16:14:09 GMT 48.327461 -3.102264 37,000 189 422 0
2019-12-04 16:14:06 GMT 48.331280 -3.101325 37,000 189 422 0
2019-12-04 16:14:02 GMT 48.339005 -3.099518 37,000 189 422 64
2019-12-04 16:13:59 GMT 48.344032 -3.098361 37,000 189 422 64
2019-12-04 16:13:56 GMT 48.351807 -3.096554 37,000 189 422 64
2019-12-04 16:13:52 GMT 48.358513 -3.094964 37,000 189 422 0
2019-12-04 16:13:49 GMT 48.363258 -3.093808 37,000 189 422 0
2019-12-04 16:13:45 GMT 48.370422 -3.092158 37,000 190 422 -64
2019-12-04 16:13:41 GMT 48.378204 -3.090257 37,000 190 422 -64
2019-12-04 16:13:38 GMT 48.384338 -3.088778 37,000 190 422 0
2019-12-04 16:13:35 GMT 48.397289 -3.085713 37,000 190 419 0
2019-12-04 16:13:31 GMT 48.397289 -3.085713 37,000 189 422 64
2019-12-04 16:13:28 GMT 48.404320 -3.083978 37,000 189 422 64
2019-12-04 16:13:25 GMT 48.411766 -3.082243 37,000 190 422 -64
2019-12-04 16:13:19 GMT 48.420273 -3.080186 37,000 190 421 -64
2019-12-04 16:13:16 GMT 48.427082 -3.078557 37,025 190 421 -64
2019-12-04 16:13:10 GMT 48.437790 -3.075955 37,025 190 421 0
2019-12-04 16:13:07 GMT 48.443115 -3.074623 37,025 190 421 0
2019-12-04 16:13:04 GMT 48.450218 -3.072919 37,025 190 421 0
2019-12-04 16:13:01 GMT 48.456070 -3.071524 37,000 190 421 64
2019-12-04 16:12:58 GMT 48.466599 -3.068989 37,000 190 421 -64
2019-12-04 16:12:52 GMT 48.478615 -3.066125 37,025 190 421 -64
2019-12-04 16:12:49 GMT 48.478615 -3.066125 37,025 190 420 0
2019-12-04 16:12:46 GMT 48.486237 -3.064270 37,025 190 420 64
2019-12-04 16:12:41 GMT 48.493927 -3.062439 37,000 190 420 64
2019-12-04 16:12:38 GMT 48.506516 -3.059411 37,000 190 420 0
2019-12-04 16:12:35 GMT 48.506516 -3.059411 37,000 190 420 0
2019-12-04 16:12:32 GMT 48.512646 -3.057958 37,000 190 420 0
2019-12-04 16:12:28 GMT 48.519196 -3.056382 37,000 190 420 0
2019-12-04 16:12:25 GMT 48.524982 -3.054994 37,000 190 420 -64
2019-12-04 16:12:21 GMT 48.538155 -3.051814 37,000 190 420 64
2019-12-04 16:12:15 GMT 48.544907 -3.050152 37,000 189 420 0
2019-12-04 16:12:11 GMT 48.552074 -3.048489 37,000 190 419 -64
2019-12-04 16:12:08 GMT 48.564178 -3.045598 37,000 190 419 0
2019-12-04 16:12:01 GMT 48.570694 -3.044058 37,000 189 419 0
2019-12-04 16:11:58 GMT 48.576370 -3.042720 37,000 189 419 -64
2019-12-04 16:11:55 GMT 48.582733 -3.041171 37,000 189 419 0
2019-12-04 16:11:51 GMT 48.590202 -3.039382 37,025 189 419 0
2019-12-04 16:11:48 GMT 48.594681 -3.038354 37,025 189 419 0
2019-12-04 16:11:45 GMT 48.609741 -3.034762 37,000 189 419 0
2019-12-04 16:11:41 GMT 48.609741 -3.034762 37,000 189 419 0
2019-12-04 16:11:35 GMT 48.621231 -3.032015 37,000 190 419 0
2019-12-04 16:11:31 GMT 48.629013 -3.030184 37,000 190 419 0
2019-12-04 16:11:28 GMT 48.634140 -3.028917 37,000 190 419 0
2019-12-04 16:11:25 GMT 48.638664 -3.027890 37,000 190 419 0
2019-12-04 16:11:22 GMT 48.647041 -3.025866 37,000 190 419 0
2019-12-04 16:11:19 GMT 48.650764 -3.024926 37,000 190 419 0
2019-12-04 16:11:15 GMT 48.660004 -3.022719 37,000 190 419 0
2019-12-04 16:11:10 GMT 48.667557 -3.020888 37,000 190 419 0
2019-12-04 16:11:07 GMT 48.674240 -3.019268 37,000 190 419 0
2019-12-04 16:11:03 GMT 48.681152 -3.017578 37,000 190 419 0
2019-12-04 16:11:00 GMT 48.687881 -3.015958 37,000 190 419 0
2019-12-04 16:10:57 GMT 48.692963 -3.014691 37,000 190 419 0
2019-12-04 16:10:54 GMT 48.698914 -3.013282 37,000 190 419 0
2019-12-04 16:10:48 GMT 48.711143 -3.010254 37,000 190 419 0
2019-12-04 16:10:44 GMT 48.718002 -3.008564 37,000 190 418 0
2019-12-04 16:10:40 GMT 48.725903 -3.006640 37,000 190 419 0
2019-12-04 16:10:37 GMT 48.731873 -3.005183 37,000 190 419 0
2019-12-04 16:10:34 GMT 48.738052 -3.003704 37,000 190 418 0
2019-12-04 16:10:30 GMT 48.751099 -3.000465 37,000 190 418 0
2019-12-04 16:10:27 GMT 48.751099 -3.000465 37,000 190 418 0
2019-12-04 16:10:24 GMT 48.756672 -2.999123 37,000 190 418 0
2019-12-04 16:10:17 GMT 48.770779 -2.995654 37,000 190 418 0
2019-12-04 16:10:13 GMT 48.777466 -2.994056 37,000 190 418 0
2019-12-04 16:10:07 GMT 48.788933 -2.991245 37,000 190 418 0
2019-12-04 16:10:04 GMT 48.796143 -2.989478 37,000 190 418 0
2019-12-04 16:09:59 GMT 48.803009 -2.987788 37,000 190 418 0
2019-12-04 16:09:56 GMT 48.817425 -2.984234 37,000 190 418 0
2019-12-04 16:09:52 GMT 48.817425 -2.984234 37,000 190 418 0
2019-12-04 16:09:49 GMT 48.822968 -2.982859 37,025 190 418 0
2019-12-04 16:09:46 GMT 48.828224 -2.981559 37,025 190 418 0
2019-12-04 16:09:42 GMT 48.835812 -2.979680 37,025 190 418 0
2019-12-04 16:09:36 GMT 48.847824 -2.976732 37,025 190 418 0
2019-12-04 16:09:33 GMT 48.853642 -2.975271 37,025 190 418 0
2019-12-04 16:09:29 GMT 48.861229 -2.973392 37,000 190 418 0
2019-12-04 16:09:26 GMT 48.866814 -2.971946 37,025 190 417 0
2019-12-04 16:09:23 GMT 48.872589 -2.970534 37,025 190 417 0
2019-12-04 16:09:19 GMT 48.880417 -2.968562 37,025 190 417 0
2019-12-04 16:09:15 GMT 48.887695 -2.966802 37,025 190 417 0
2019-12-04 16:09:10 GMT 48.896515 -2.964574 37,025 194 419 0
2019-12-04 16:09:05 GMT 48.906693 -2.962154 37,000 189 418 64
2019-12-04 16:09:01 GMT 48.914383 -2.960252 37,000 191 418 0
2019-12-04 16:08:57 GMT 48.922165 -2.958069 37,000 192 419 0
2019-12-04 16:08:54 GMT 48.932373 -2.954759 37,000 195 420 0
2019-12-04 16:08:51 GMT 48.932373 -2.954759 37,000 195 420 0
2019-12-04 16:08:47 GMT 48.945351 -2.949612 37,025 197 421 0
2019-12-04 16:08:41 GMT 48.951782 -2.946730 37,000 197 421 0
2019-12-04 16:08:36 GMT 48.961224 -2.942095 37,025 206 425 64
2019-12-04 16:08:33 GMT 48.966110 -2.939566 37,025 201 423 0
2019-12-04 16:08:30 GMT 48.972794 -2.935744 37,025 202 423 0
2019-12-04 16:08:24 GMT 48.982777 -2.929591 37,025 203 424 0
2019-12-04 16:08:21 GMT 48.989044 -2.925321 37,000 206 425 64
2019-12-04 16:08:14 GMT 49.001450 -2.916377 37,000 206 426 0
2019-12-04 16:08:10 GMT 49.009636 -2.910437 37,000 206 426 0
2019-12-04 16:08:06 GMT 49.016693 -2.905320 37,000 206 425 0
2019-12-04 16:08:00 GMT 49.031342 -2.894686 37,000 206 425 0
2019-12-04 16:07:54 GMT 49.041759 -2.887164 37,000 206 425 0
2019-12-04 16:07:51 GMT 49.048782 -2.882010 37,025 206 425 0
2019-12-04 16:07:45 GMT 49.052948 -2.878981 37,000 206 425 0
2019-12-04 16:07:41 GMT 49.059540 -2.874226 37,000 206 425 0
2019-12-04 16:07:38 GMT 49.071899 -2.865178 37,025 206 425 -64
2019-12-04 16:07:30 GMT 49.079636 -2.859614 37,025 206 425 0
2019-12-04 16:07:25 GMT 49.088310 -2.853265 37,025 206 424 0
2019-12-04 16:07:22 GMT 49.093201 -2.849723 37,000 206 424 0
2019-12-04 16:07:19 GMT 49.098038 -2.846163 37,000 206 424 64
2019-12-04 16:07:15 GMT 49.107468 -2.839262 37,000 206 424 0
2019-12-04 16:07:12 GMT 49.112137 -2.835811 37,000 206 424 0
2019-12-04 16:07:04 GMT 49.124622 -2.826739 37,000 206 424 0
2019-12-04 16:07:01 GMT 49.130581 -2.822330 37,000 206 424 0
2019-12-04 16:06:58 GMT 49.135933 -2.818427 37,000 206 424 0
2019-12-04 16:06:54 GMT 49.142212 -2.813838 37,025 206 420 0
2019-12-04 16:06:50 GMT 49.149944 -2.808163 37,025 206 424 -64
2019-12-04 16:06:47 GMT 49.154324 -2.804983 37,000 206 424 -64
2019-12-04 16:06:44 GMT 49.160202 -2.800598 37,000 206 424 -64
2019-12-04 16:06:40 GMT 49.169216 -2.793997 37,000 206 422 64
2019-12-04 16:06:37 GMT 49.173687 -2.790744 37,025 206 422 0
2019-12-04 16:06:33 GMT 49.179794 -2.786231 37,025 206 422 64
2019-12-04 16:06:30 GMT 49.184860 -2.782577 37,025 206 420 -64
2019-12-04 16:06:27 GMT 49.190353 -2.778529 37,000 206 421 0
2019-12-04 16:06:24 GMT 49.206692 -2.766531 37,000 206 419 64
2019-12-04 16:06:19 GMT 49.206692 -2.766531 37,000 206 420 0
2019-12-04 16:06:16 GMT 49.209347 -2.764579 37,000 206 421 0
2019-12-04 16:06:13 GMT 49.213863 -2.761255 37,000 206 421 0
2019-12-04 16:06:08 GMT 49.224010 -2.753810 37,000 206 421 0
2019-12-04 16:06:05 GMT 49.229736 -2.749610 37,025 206 421 0
2019-12-04 16:06:02 GMT 49.233353 -2.746934 37,000 206 420 -64
2019-12-04 16:05:59 GMT 49.240265 -2.741864 37,000 206 420 0
2019-12-04 16:05:56 GMT 49.244541 -2.738704 37,000 206 420 -64
2019-12-04 16:05:52 GMT 49.252853 -2.732567 37,000 206 420 0
2019-12-04 16:05:49 GMT 49.257294 -2.729328 37,000 206 419 64
2019-12-04 16:05:46 GMT 49.262466 -2.725454 37,025 206 420 -64
2019-12-04 16:05:43 GMT 49.267117 -2.722080 37,025 206 420 0
2019-12-04 16:05:40 GMT 49.273087 -2.717708 37,000 206 419 64
2019-12-04 16:05:37 GMT 49.278442 -2.713693 37,000 206 419 64
2019-12-04 16:05:34 GMT 49.283318 -2.710154 37,000 206 419 64
2019-12-04 16:05:31 GMT 49.289230 -2.705817 37,000 206 419 0
2019-12-04 16:05:28 GMT 49.293049 -2.702926 37,000 206 419 0
2019-12-04 16:05:24 GMT 49.300495 -2.697433 37,000 206 419 0
2019-12-04 16:05:21 GMT 49.304966 -2.694180 37,000 206 419 0
2019-12-04 16:05:18 GMT 49.311356 -2.689467 37,000 206 419 0
2019-12-04 16:05:15 GMT 49.316788 -2.685434 37,000 206 419 0
2019-12-04 16:05:12 GMT 49.321583 -2.681893 37,000 206 419 0
2019-12-04 16:05:08 GMT 49.330124 -2.675593 37,000 206 418 0
2019-12-04 16:05:05 GMT 49.334335 -2.672495 37,000 206 419 0
2019-12-04 16:05:02 GMT 49.346237 -2.663692 37,000 206 419 0
2019-12-04 16:04:58 GMT 49.346237 -2.663692 37,000 206 419 0
2019-12-04 16:04:55 GMT 49.351456 -2.659818 37,000 206 418 0
2019-12-04 16:04:52 GMT 49.355988 -2.656438 37,000 206 418 0
2019-12-04 16:04:49 GMT 49.362129 -2.651897 37,000 206 418 0
2019-12-04 16:04:46 GMT 49.367390 -2.648066 37,000 206 418 0
2019-12-04 16:04:43 GMT 49.373566 -2.643480 37,000 206 418 0
2019-12-04 16:04:36 GMT 49.383591 -2.636068 37,000 206 418 0
2019-12-04 16:04:33 GMT 49.395401 -2.627352 37,000 206 418 0
2019-12-04 16:04:27 GMT 49.400398 -2.623636 37,000 206 418 0
2019-12-04 16:04:24 GMT 49.405701 -2.619746 37,000 206 418 0
2019-12-04 16:04:21 GMT 49.411057 -2.615758 37,000 206 418 0
2019-12-04 16:04:17 GMT 49.417294 -2.611132 37,000 206 418 0
2019-12-04 16:04:14 GMT 49.423019 -2.606940 37,000 206 418 0
2019-12-04 16:04:11 GMT 49.427071 -2.603904 37,000 206 418 0
2019-12-04 16:04:08 GMT 49.432518 -2.599900 37,000 206 418 0
2019-12-04 16:04:04 GMT 49.439896 -2.594436 37,000 206 418 0
2019-12-04 16:04:01 GMT 49.444199 -2.591256 37,000 206 418 0
2019-12-04 16:03:58 GMT 49.451935 -2.585546 37,000 206 418 0
2019-12-04 16:03:55 GMT 49.457977 -2.581064 37,000 206 418 0
2019-12-04 16:03:52 GMT 49.462326 -2.577812 37,000 206 418 0
2019-12-04 16:03:48 GMT 49.474548 -2.568777 37,000 206 417 0
2019-12-04 16:03:44 GMT 49.474548 -2.568777 37,000 206 418 0
2019-12-04 16:03:41 GMT 49.479218 -2.565308 37,000 206 417 0
2019-12-04 16:03:38 GMT 49.485264 -2.560854 37,000 206 417 0
2019-12-04 16:03:34 GMT 49.492081 -2.555767 37,000 206 417 0
2019-12-04 16:03:31 GMT 49.502975 -2.547672 37,000 206 418 0
2019-12-04 16:03:24 GMT 49.510864 -2.541850 37,000 206 417 -64
2019-12-04 16:03:21 GMT 49.514328 -2.539287 37,000 206 417 0
2019-12-04 16:03:18 GMT 49.520550 -2.534650 37,000 206 417 0
2019-12-04 16:03:14 GMT 49.527390 -2.529528 37,000 206 417 0
2019-12-04 16:03:11 GMT 49.533535 -2.525000 37,000 206 417 0
2019-12-04 16:03:03 GMT 49.546570 -2.515275 37,000 206 417 64
2019-12-04 16:02:59 GMT 49.557999 -2.506762 37,000 206 418 -64
2019-12-04 16:02:53 GMT 49.564041 -2.502281 37,000 206 418 -64
2019-12-04 16:02:50 GMT 49.573849 -2.494936 37,000 206 418 0
2019-12-04 16:02:47 GMT 49.573849 -2.494936 37,000 207 419 0
2019-12-04 16:02:44 GMT 49.579250 -2.490853 37,000 206 418 0
2019-12-04 16:02:41 GMT 49.584652 -2.486844 37,000 206 418 0
2019-12-04 16:02:38 GMT 49.594482 -2.479513 37,000 206 419 -64
2019-12-04 16:02:32 GMT 49.601990 -2.473875 37,000 206 418 0
2019-12-04 16:02:29 GMT 49.612164 -2.466282 37,000 206 418 0
2019-12-04 16:02:23 GMT 49.614807 -2.464335 37,000 206 418 0
2019-12-04 16:02:20 GMT 49.620026 -2.460432 37,000 206 418 0
2019-12-04 16:02:17 GMT 49.625290 -2.456456 37,000 206 418 0
2019-12-04 16:02:14 GMT 49.631241 -2.452047 37,000 206 419 -64
2019-12-04 16:02:11 GMT 49.636734 -2.447927 37,000 206 418 0
2019-12-04 16:02:05 GMT 49.646622 -2.440555 37,000 206 418 0
2019-12-04 16:02:02 GMT 49.651932 -2.436652 37,000 206 418 0
2019-12-04 16:01:59 GMT 49.662857 -2.428424 37,000 206 419 0
2019-12-04 16:01:56 GMT 49.669052 -2.423859 37,000 206 419 0
2019-12-04 16:01:53 GMT 49.669052 -2.423859 37,000 206 419 0
2019-12-04 16:01:50 GMT 49.680450 -2.415330 37,000 206 419 0
2019-12-04 16:01:46 GMT 49.680450 -2.415330 37,000 206 419 0
2019-12-04 16:01:43 GMT 49.685349 -2.411644 37,000 206 419 -64
2019-12-04 16:01:40 GMT 49.690338 -2.407957 37,000 206 419 0
2019-12-04 16:01:37 GMT 49.697540 -2.402591 37,000 206 419 64
2019-12-04 16:01:34 GMT 49.701279 -2.399790 37,000 206 419 0
2019-12-04 16:01:31 GMT 49.710155 -2.393090 37,000 206 419 0
2019-12-04 16:01:25 GMT 49.716385 -2.388442 37,000 207 419 -64
2019-12-04 16:01:22 GMT 49.728699 -2.379191 37,000 206 419 0
2019-12-04 16:01:19 GMT 49.728699 -2.379191 37,000 206 419 0
2019-12-04 16:01:16 GMT 49.733059 -2.375942 37,000 206 419 0
2019-12-04 16:01:10 GMT 49.743767 -2.367925 37,000 206 419 0
2019-12-04 16:01:07 GMT 49.748703 -2.364229 37,000 207 419 0
2019-12-04 16:01:04 GMT 49.759083 -2.356419 37,000 207 419 0
2019-12-04 16:01:01 GMT 49.759083 -2.356419 37,025 207 419 0
2019-12-04 16:00:58 GMT 49.763367 -2.353153 37,025 207 419 0
2019-12-04 16:00:52 GMT 49.779144 -2.341317 37,025 207 419 0
2019-12-04 16:00:49 GMT 49.779144 -2.341317 37,000 207 419 0
2019-12-04 16:00:46 GMT 49.783676 -2.337920 37,000 207 419 0
2019-12-04 16:00:43 GMT 49.790955 -2.332354 37,025 207 419 0
2019-12-04 16:00:40 GMT 49.794342 -2.329824 37,000 207 419 0
2019-12-04 16:00:37 GMT 49.802399 -2.323681 37,000 207 419 0
2019-12-04 16:00:34 GMT 49.807495 -2.319897 37,025 207 419 -64
2019-12-04 16:00:31 GMT 49.810242 -2.317818 37,025 207 419 -64
2019-12-04 16:00:28 GMT 49.817047 -2.312622 37,000 207 419 -64
2019-12-04 16:00:24 GMT 49.823181 -2.307996 37,025 207 420 0
2019-12-04 16:00:21 GMT 49.828079 -2.304238 37,025 207 420 0
2019-12-04 16:00:18 GMT 49.833481 -2.300118 37,000 207 420 0
2019-12-04 16:00:15 GMT 49.843716 -2.292357 37,000 207 420 0
2019-12-04 16:00:12 GMT 49.843716 -2.292357 37,000 207 420 0
2019-12-04 16:00:09 GMT 49.848862 -2.288481 37,000 207 421 -64
2019-12-04 16:00:06 GMT 49.854630 -2.284144 37,025 207 420 0
2019-12-04 16:00:03 GMT 49.859528 -2.280386 37,025 207 420 0
2019-12-04 16:00:00 GMT 49.863777 -2.277213 37,025 207 420 0
2019-12-04 15:59:57 GMT 49.870972 -2.271785 37,000 207 420 0
2019-12-04 15:59:54 GMT 49.875462 -2.268380 37,000 207 420 0
2019-12-04 15:59:51 GMT 49.882553 -2.262967 37,000 207 420 0
2019-12-04 15:59:48 GMT 49.885712 -2.260582 37,000 207 420 0
2019-12-04 15:59:44 GMT 49.899994 -2.249812 37,000 207 421 0
2019-12-04 15:59:41 GMT 49.902832 -2.247644 37,000 207 421 0
2019-12-04 15:59:38 GMT 49.909912 -2.242250 37,000 207 421 0
2019-12-04 15:59:35 GMT 49.909912 -2.242250 37,000 207 421 0
2019-12-04 15:59:32 GMT 49.915192 -2.238320 37,000 207 421 -64
2019-12-04 15:59:29 GMT 49.918579 -2.235718 37,025 207 420 -64
2019-12-04 15:59:26 GMT 49.925507 -2.230447 37,025 207 420 0
2019-12-04 15:59:23 GMT 49.938126 -2.220901 37,000 207 421 128
2019-12-04 15:59:19 GMT 49.938126 -2.220901 37,000 207 421 128
2019-12-04 15:59:16 GMT 49.942612 -2.217504 37,000 207 421 64
2019-12-04 15:59:13 GMT 49.946182 -2.214829 37,000 207 421 -64
2019-12-04 15:59:10 GMT 49.953186 -2.209481 37,000 207 422 -192
2019-12-04 15:59:07 GMT 49.958450 -2.205505 37,000 207 422 -192
2019-12-04 15:59:03 GMT 49.965168 -2.200383 37,025 207 422 0
2019-12-04 15:59:00 GMT 49.970169 -2.196543 37,025 207 422 0
2019-12-04 15:58:57 GMT 49.974339 -2.193331 37,000 207 422 0
2019-12-04 15:58:54 GMT 49.979832 -2.189174 37,000 207 422 0
2019-12-04 15:58:51 GMT 49.992680 -2.179450 37,000 207 422 0
2019-12-04 15:58:48 GMT 49.992680 -2.179450 37,000 207 422 0
2019-12-04 15:58:45 GMT 49.995529 -2.177244 37,000 207 422 0
2019-12-04 15:58:42 GMT 50.006458 -2.168909 37,000 207 422 0
2019-12-04 15:58:39 GMT 50.006458 -2.168909 37,000 207 422 0
2019-12-04 15:58:36 GMT 50.011093 -2.165391 37,000 207 422 -64
2019-12-04 15:58:33 GMT 50.017181 -2.160765 37,000 207 422 0
2019-12-04 15:58:30 GMT 50.023174 -2.156141 37,000 207 421 0
2019-12-04 15:58:27 GMT 50.026840 -2.153393 37,000 207 421 0
2019-12-04 15:58:24 GMT 50.033134 -2.148569 37,000 207 421 64
2019-12-04 15:58:21 GMT 50.038651 -2.144358 37,000 207 422 0
2019-12-04 15:58:18 GMT 50.042492 -2.141369 37,000 207 422 0
2019-12-04 15:58:15 GMT 50.053944 -2.132684 37,000 207 422 0
2019-12-04 15:58:12 GMT 50.053944 -2.132684 37,000 207 422 0
2019-12-04 15:58:09 GMT 50.058880 -2.128898 37,000 207 421 0
2019-12-04 15:58:03 GMT 50.074905 -2.116675 37,000 207 421 0
2019-12-04 15:58:00 GMT 50.080059 -2.112790 37,000 207 421 0
2019-12-04 15:57:57 GMT 50.080059 -2.112790 37,000 207 422 0
2019-12-04 15:57:54 GMT 50.090332 -2.104894 37,000 207 422 0
2019-12-04 15:57:51 GMT 50.094677 -2.101581 37,000 207 421 0
2019-12-04 15:57:48 GMT 50.101501 -2.096365 37,000 207 421 0
2019-12-04 15:57:45 GMT 50.101501 -2.096365 37,000 207 421 0
2019-12-04 15:57:42 GMT 50.107269 -2.091956 37,000 207 421 0
2019-12-04 15:57:39 GMT 50.111343 -2.088848 37,000 207 421 0
2019-12-04 15:57:36 GMT 50.116325 -2.085027 37,000 207 421 0
2019-12-04 15:57:33 GMT 50.121956 -2.080721 37,000 207 421 0
2019-12-04 15:57:30 GMT 50.126892 -2.076936 37,000 207 421 0
2019-12-04 15:57:27 GMT 50.132057 -2.072927 37,000 207 421 0
2019-12-04 15:57:24 GMT 50.136566 -2.069477 37,000 207 421 0
2019-12-04 15:57:21 GMT 50.141922 -2.065357 37,000 207 421 0
2019-12-04 15:57:18 GMT 50.149200 -2.059792 37,000 207 421 0
2019-12-04 15:57:15 GMT 50.151844 -2.057784 37,000 207 421 0
2019-12-04 15:57:12 GMT 50.160221 -2.051326 37,000 207 421 0
2019-12-04 15:57:09 GMT 50.163528 -2.048802 37,000 207 421 0
2019-12-04 15:57:06 GMT 50.176098 -2.039152 37,000 207 422 0
2019-12-04 15:57:03 GMT 50.176098 -2.039152 37,000 207 422 0
2019-12-04 15:57:00 GMT 50.186153 -2.031357 37,000 207 422 0
2019-12-04 15:56:57 GMT 50.186153 -2.031357 37,000 207 422 0
2019-12-04 15:56:54 GMT 50.189713 -2.028712 37,000 207 422 0
2019-12-04 15:56:51 GMT 50.196907 -2.023117 37,000 207 422 0
2019-12-04 15:56:48 GMT 50.200424 -2.020472 37,000 207 422 0
2019-12-04 15:56:45 GMT 50.205093 -2.016859 37,000 207 422 0
2019-12-04 15:56:42 GMT 50.210312 -2.012873 37,000 207 422 0
2019-12-04 15:56:38 GMT 50.217773 -2.007101 37,000 207 422 0
2019-12-04 15:56:32 GMT 50.227982 -1.999295 37,000 207 422 0
2019-12-04 15:56:29 GMT 50.233356 -1.995132 37,000 207 422 0
2019-12-04 15:56:26 GMT 50.239975 -1.990043 37,000 207 422 0
2019-12-04 15:56:20 GMT 50.250114 -1.982290 37,000 207 422 0
2019-12-04 15:56:17 GMT 50.254631 -1.978801 37,000 207 422 0
2019-12-04 15:56:14 GMT 50.258728 -1.975683 37,000 207 422 0
2019-12-04 15:56:11 GMT 50.265244 -1.970673 37,000 207 422 0
2019-12-04 15:56:08 GMT 50.278152 -1.960698 37,000 207 422 0
2019-12-04 15:56:04 GMT 50.278152 -1.960698 37,000 207 422 0
2019-12-04 15:56:01 GMT 50.282639 -1.957229 37,000 207 422 0
2019-12-04 15:55:58 GMT 50.287857 -1.953181 37,000 207 422 0
2019-12-04 15:55:55 GMT 50.293213 -1.949061 37,000 207 422 0
2019-12-04 15:55:52 GMT 50.298298 -1.945100 37,000 207 423 0
2019-12-04 15:55:49 GMT 50.304348 -1.940423 37,000 207 423 0
2019-12-04 15:55:46 GMT 50.307999 -1.937641 37,000 207 422 0
2019-12-04 15:55:43 GMT 50.315094 -1.932148 37,000 207 422 0
2019-12-04 15:55:40 GMT 50.324020 -1.925282 37,000 207 422 0
2019-12-04 15:55:34 GMT 50.329624 -1.920974 37,000 207 422 0
2019-12-04 15:55:31 GMT 50.335258 -1.916595 37,000 207 422 0
2019-12-04 15:55:28 GMT 50.340286 -1.912735 37,000 207 422 64
2019-12-04 15:55:25 GMT 50.346405 -1.908007 37,000 207 422 64
2019-12-04 15:55:22 GMT 50.352173 -1.903526 37,000 207 422 64
2019-12-04 15:55:19 GMT 50.356613 -1.900129 37,000 207 422 0
2019-12-04 15:55:16 GMT 50.361191 -1.896659 37,000 207 422 -64
2019-12-04 15:55:13 GMT 50.366913 -1.892247 37,000 207 422 -64
2019-12-04 15:55:10 GMT 50.370640 -1.889426 37,000 207 422 -64
2019-12-04 15:55:07 GMT 50.377014 -1.884452 37,000 207 421 -64
2019-12-04 15:55:04 GMT 50.381744 -1.880830 37,000 207 421 0
2019-12-04 15:55:01 GMT 50.388885 -1.875265 37,025 207 421 0
2019-12-04 15:54:58 GMT 50.397499 -1.868492 37,025 207 421 64
2019-12-04 15:54:52 GMT 50.408844 -1.859653 37,000 207 421 0
2019-12-04 15:54:49 GMT 50.408844 -1.859653 37,000 207 421 0
2019-12-04 15:54:45 GMT 50.415051 -1.854834 37,000 207 420 0
2019-12-04 15:54:42 GMT 50.419373 -1.851485 37,000 207 420 0
2019-12-04 15:54:39 GMT 50.427525 -1.845109 37,000 207 420 0
2019-12-04 15:54:35 GMT 50.433670 -1.840358 37,000 207 420 0
2019-12-04 15:54:32 GMT 50.443447 -1.832787 37,000 207 420 0
2019-12-04 15:54:29 GMT 50.443447 -1.832787 37,000 207 420 0
2019-12-04 15:54:23 GMT 50.452332 -1.825827 37,000 207 419 0
2019-12-04 15:54:20 GMT 50.460716 -1.819277 37,000 207 420 0
2019-12-04 15:54:14 GMT 50.470459 -1.811732 37,000 207 420 0
2019-12-04 15:54:11 GMT 50.474167 -1.808841 37,000 207 419 0
2019-12-04 15:54:08 GMT 50.480453 -1.803911 37,000 207 420 0
2019-12-04 15:54:05 GMT 50.485016 -1.800312 37,000 204 419 0
2019-12-04 15:54:02 GMT 50.489487 -1.796859 37,025 204 419 -64
2019-12-04 15:53:59 GMT 50.496563 -1.791365 37,000 206 420 -64
2019-12-04 15:53:56 GMT 50.500847 -1.788173 37,025 204 419 0
2019-12-04 15:53:53 GMT 50.505295 -1.785134 37,000 202 413 832
2019-12-04 15:53:50 GMT 50.516739 -1.777761 37,025 202 418 0
2019-12-04 15:53:44 GMT 50.521793 -1.774663 37,000 202 418 0
2019-12-04 15:53:41 GMT 50.528046 -1.770750 37,000 202 418 0
2019-12-04 15:53:38 GMT 50.532734 -1.767834 37,000 202 418 0
2019-12-04 15:53:35 GMT 50.537388 -1.764939 37,025 202 418 0
2019-12-04 15:53:32 GMT 50.542969 -1.761426 37,025 202 418 0
2019-12-04 15:53:29 GMT 50.555218 -1.753804 37,025 202 418 0
2019-12-04 15:53:23 GMT 50.565784 -1.747197 37,025 202 418 0
2019-12-04 15:53:20 GMT 50.571350 -1.743790 37,000 202 418 0
2019-12-04 15:53:17 GMT 50.571350 -1.743790 37,000 202 418 0
2019-12-04 15:53:14 GMT 50.576340 -1.740683 37,000 202 418 -64
2019-12-04 15:53:08 GMT 50.585804 -1.734726 37,025 202 418 0
2019-12-04 15:53:05 GMT 50.591343 -1.731237 37,000 202 418 0
2019-12-04 15:53:02 GMT 50.597351 -1.727528 37,025 202 418 0
2019-12-04 15:52:59 GMT 50.602699 -1.724185 37,025 202 417 0
2019-12-04 15:52:56 GMT 50.607925 -1.720950 37,025 202 417 0
2019-12-04 15:52:53 GMT 50.613689 -1.717356 37,000 202 417 0
2019-12-04 15:52:50 GMT 50.624813 -1.710378 37,000 202 417 0
2019-12-04 15:52:47 GMT 50.629097 -1.707706 37,000 202 417 0
2019-12-04 15:52:41 GMT 50.635071 -1.703893 37,025 202 417 -128
2019-12-04 15:52:38 GMT 50.641617 -1.699845 37,025 202 416 -128
2019-12-04 15:52:32 GMT 50.650742 -1.694121 37,025 202 415 512
2019-12-04 15:52:29 GMT 50.662708 -1.686624 36,950 202 415 768
2019-12-04 15:52:26 GMT 50.662708 -1.686624 36,950 202 415 512
2019-12-04 15:52:23 GMT 50.668213 -1.683149 36,850 202 413 832
2019-12-04 15:52:20 GMT 50.679245 -1.676232 36,850 202 414 896
2019-12-04 15:52:17 GMT 50.679245 -1.676232 36,800 202 413 896
2019-12-04 15:52:14 GMT 50.682541 -1.674194 36,600 202 413 832
2019-12-04 15:52:11 GMT 50.689568 -1.669769 36,750 202 413 832
2019-12-04 15:52:08 GMT 50.693481 -1.667324 36,725 202 413 832
2019-12-04 15:52:05 GMT 50.699524 -1.663464 36,700 202 413 0
2019-12-04 15:52:02 GMT 50.705566 -1.659678 36,575 202 413 960
2019-12-04 15:51:59 GMT 50.711353 -1.656036 36,575 202 413 960
2019-12-04 15:51:56 GMT 50.715031 -1.653748 36,550 202 413 960
2019-12-04 15:51:53 GMT 50.720215 -1.650473 36,500 202 413 960
2019-12-04 15:51:50 GMT 50.727554 -1.645889 36,425 202 413 1024
2019-12-04 15:51:47 GMT 50.729603 -1.644592 36,400 202 413 1024
2019-12-04 15:51:44 GMT 50.736446 -1.640244 36,250 202 413 1088
2019-12-04 15:51:41 GMT 50.741798 -1.636887 36,300 202 413 1088
2019-12-04 15:51:38 GMT 50.748177 -1.632919 36,200 202 413 1088
2019-12-04 15:51:35 GMT 50.751846 -1.630579 36,175 202 413 1088
2019-12-04 15:51:32 GMT 50.758667 -1.626273 36,025 202 413 1152
2019-12-04 15:51:29 GMT 50.762890 -1.623611 36,050 202 413 1152
2019-12-04 15:51:26 GMT 50.767776 -1.620560 36,000 202 413 1152
2019-12-04 15:51:23 GMT 50.773129 -1.617203 35,950 202 413 1152
2019-12-04 15:51:20 GMT 50.778397 -1.613877 35,800 202 413 1152
2019-12-04 15:51:17 GMT 50.789658 -1.606750 35,800 202 413 1152
2019-12-04 15:51:14 GMT 50.796249 -1.602593 35,700 202 413 1152
2019-12-04 15:51:11 GMT 50.796249 -1.602593 35,700 202 413 1152
2019-12-04 15:51:08 GMT 50.800827 -1.599698 35,600 202 413 1152
2019-12-04 15:51:05 GMT 50.806778 -1.595987 35,525 202 413 1152
2019-12-04 15:51:02 GMT 50.810211 -1.593834 35,500 202 413 1280
2019-12-04 15:50:59 GMT 50.818890 -1.588364 35,500 202 413 1344
2019-12-04 15:50:56 GMT 50.822571 -1.586040 35,400 202 413 1408
2019-12-04 15:50:53 GMT 50.826012 -1.583862 35,300 202 413 1408
2019-12-04 15:50:50 GMT 50.836765 -1.577072 35,200 202 414 1408
2019-12-04 15:50:44 GMT 50.844086 -1.572455 34,725 202 414 1408
2019-12-04 15:50:41 GMT 50.848938 -1.569338 34,775 202 415 1472
2019-12-04 15:50:38 GMT 50.854595 -1.565781 34,800 202 415 1408
2019-12-04 15:50:35 GMT 50.858231 -1.563473 34,225 202 416 1408
2019-12-04 15:50:32 GMT 50.865280 -1.559019 34,825 202 415 1408
2019-12-04 15:50:29 GMT 50.869865 -1.556168 34,700 202 415 1408
2019-12-04 15:50:26 GMT 50.881130 -1.548996 34,675 202 416 1408
2019-12-04 15:50:23 GMT 50.881130 -1.548996 34,600 202 416 1408
2019-12-04 15:50:20 GMT 50.885551 -1.546173 34,475 202 416 1408
2019-12-04 15:50:17 GMT 50.890778 -1.542911 34,500 202 416 1408
2019-12-04 15:50:14 GMT 50.896088 -1.539571 34,225 202 416 1408
2019-12-04 15:50:11 GMT 50.900986 -1.536453 34,375 202 416 1408
2019-12-04 15:50:08 GMT 50.908318 -1.531754 31,450 202 418 1536
2019-12-04 15:50:05 GMT 50.913574 -1.528436 34,100 202 416 1408
2019-12-04 15:50:02 GMT 50.916916 -1.526357 34,075 202 416 1408
2019-12-04 15:49:59 GMT 50.922562 -1.522751 34,025 202 416 1408
2019-12-04 15:49:56 GMT 50.927902 -1.519379 33,375 202 417 1344
2019-12-04 15:49:53 GMT 50.939880 -1.511765 33,900 202 417 1344
2019-12-04 15:49:50 GMT 50.945663 -1.508096 33,775 202 417 1344
2019-12-04 15:49:47 GMT 50.949188 -1.505869 33,725 202 418 1344
2019-12-04 15:49:44 GMT 50.956264 -1.501312 33,675 202 418 1344
2019-12-04 15:49:41 GMT 50.956264 -1.501312 33,625 202 418 1344
2019-12-04 15:49:38 GMT 50.961433 -1.498032 33,575 202 418 1344
2019-12-04 15:49:35 GMT 50.965763 -1.495285 33,175 202 417 1280
2019-12-04 15:49:32 GMT 50.971985 -1.491320 33,450 202 417 1536
2019-12-04 15:49:29 GMT 50.976189 -1.488647 33,400 202 417 1280
2019-12-04 15:49:26 GMT 50.981689 -1.485159 33,125 202 417 1536
2019-12-04 15:49:23 GMT 50.987877 -1.481247 33,275 202 417 1344
2019-12-04 15:49:20 GMT 50.992493 -1.478255 32,750 202 417 1344
2019-12-04 15:49:17 GMT 50.998444 -1.474469 33,075 202 417 1472
2019-12-04 15:49:14 GMT 51.003654 -1.471176 32,950 202 417 1536
2019-12-04 15:49:11 GMT 51.009056 -1.467667 32,800 202 417 1472
2019-12-04 15:49:08 GMT 51.013477 -1.464844 32,900 202 417 1536
2019-12-04 15:49:05 GMT 51.019775 -1.460810 32,825 202 417 1600
2019-12-04 15:49:02 GMT 51.024765 -1.457693 32,700 202 418 1600
2019-12-04 15:48:59 GMT 51.036713 -1.450047 32,600 202 418 1536
2019-12-04 15:48:56 GMT 51.043224 -1.445923 32,475 202 418 1536
2019-12-04 15:48:52 GMT 51.043224 -1.445923 32,275 202 418 1472
2019-12-04 15:48:49 GMT 51.048660 -1.442401 32,375 202 418 1536
2019-12-04 15:48:46 GMT 51.054398 -1.438751 32,325 202 418 1536
2019-12-04 15:48:43 GMT 51.060059 -1.435200 32,275 202 418 1536
2019-12-04 15:48:40 GMT 51.063583 -1.432899 31,875 202 418 1536
2019-12-04 15:48:37 GMT 51.069077 -1.429410 32,100 202 418 1536
2019-12-04 15:48:34 GMT 51.074509 -1.426010 32,000 202 417 1472
2019-12-04 15:48:31 GMT 51.080338 -1.422284 31,975 202 417 1536
2019-12-04 15:48:28 GMT 51.085464 -1.419018 31,600 202 418 1536
2019-12-04 15:48:25 GMT 51.090801 -1.415634 31,825 202 418 1536
2019-12-04 15:48:22 GMT 51.095490 -1.412634 31,775 202 418 1536
2019-12-04 15:48:19 GMT 51.102627 -1.408081 30,650 202 418 1600
2019-12-04 15:48:13 GMT 51.114498 -1.400528 31,450 202 418 1664
2019-12-04 15:48:07 GMT 51.123505 -1.394744 31,200 202 418 1664
2019-12-04 15:48:04 GMT 51.128860 -1.391329 31,250 202 418 1664
2019-12-04 15:48:01 GMT 51.134514 -1.387711 31,125 202 418 1728
2019-12-04 15:47:58 GMT 51.139168 -1.384735 31,050 202 418 1792
2019-12-04 15:47:55 GMT 51.145409 -1.380768 30,900 202 418 1856
2019-12-04 15:47:52 GMT 51.150806 -1.377335 29,050 203 416 1536
2019-12-04 15:47:49 GMT 51.156532 -1.373672 30,450 202 420 1984
2019-12-04 15:47:46 GMT 51.162277 -1.369951 30,700 202 419 1920
2019-12-04 15:47:43 GMT 51.166077 -1.367493 29,700 203 420 1408
2019-12-04 15:47:40 GMT 51.171524 -1.364059 30,575 202 420 1920
2019-12-04 15:47:37 GMT 51.178505 -1.359558 30,450 202 420 1920
2019-12-04 15:47:34 GMT 51.184616 -1.355624 30,325 203 421 2112
2019-12-04 15:47:31 GMT 51.189678 -1.352386 30,250 202 421 2112
2019-12-04 15:47:28 GMT 51.194382 -1.349411 30,100 203 421 2048
2019-12-04 15:47:25 GMT 51.200821 -1.345231 30,050 203 421 1984
2019-12-04 15:47:22 GMT 51.204529 -1.342856 29,875 203 421 1408
2019-12-04 15:47:19 GMT 51.209137 -1.339874 29,875 202 422 1408
2019-12-04 15:47:16 GMT 51.214005 -1.336769 29,825 203 421 1408
2019-12-04 15:47:13 GMT 51.225403 -1.329494 29,675 203 420 1344
2019-12-04 15:47:07 GMT 51.231018 -1.325836 29,550 202 419 1280
2019-12-04 15:47:04 GMT 51.237305 -1.321774 29,500 202 419 1280
2019-12-04 15:47:01 GMT 51.243347 -1.317914 29,450 202 419 1344
2019-12-04 15:46:58 GMT 51.248753 -1.314392 29,200 203 418 1536
2019-12-04 15:46:55 GMT 51.252960 -1.311678 29,300 203 418 1536
2019-12-04 15:46:52 GMT 51.259369 -1.307596 29,200 203 418 1536
2019-12-04 15:46:49 GMT 51.264256 -1.304474 29,175 203 416 1536
2019-12-04 15:46:45 GMT 51.272636 -1.299057 29,000 202 417 1472
2019-12-04 15:46:42 GMT 51.278080 -1.295547 28,950 203 416 1536
2019-12-04 15:46:39 GMT 51.281342 -1.293411 28,900 203 416 1536
2019-12-04 15:46:36 GMT 51.286194 -1.290300 28,800 203 416 1536
2019-12-04 15:46:33 GMT 51.291458 -1.286885 28,750 203 416 1536
2019-12-04 15:46:30 GMT 51.298519 -1.282272 28,600 203 415 1600
2019-12-04 15:46:27 GMT 51.302765 -1.279536 28,600 203 415 1600
2019-12-04 15:46:24 GMT 51.309769 -1.275008 28,400 203 414 1600
2019-12-04 15:46:21 GMT 51.318813 -1.269150 28,325 203 413 1600
2019-12-04 15:46:18 GMT 51.318813 -1.269150 28,350 203 413 1600
2019-12-04 15:46:15 GMT 51.325798 -1.264572 28,200 203 413 1728
2019-12-04 15:46:12 GMT 51.329681 -1.262017 28,075 203 413 1792
2019-12-04 15:46:09 GMT 51.335712 -1.258087 28,075 203 413 1792
2019-12-04 15:46:06 GMT 51.340027 -1.255336 25,800 170 400 1728
2019-12-04 15:46:03 GMT 51.345860 -1.251831 27,875 200 411 1600
2019-12-04 15:46:00 GMT 51.351608 -1.248656 27,825 199 411 1664
2019-12-04 15:45:57 GMT 51.355869 -1.246414 27,775 198 410 1664
2019-12-04 15:45:54 GMT 51.362247 -1.243286 27,675 196 410 1728
2019-12-04 15:45:51 GMT 51.368134 -1.240713 27,550 193 409 1536
2019-12-04 15:45:48 GMT 51.372070 -1.239014 27,550 194 409 1664
2019-12-04 15:45:45 GMT 51.383102 -1.235123 27,400 192 408 1536
2019-12-04 15:45:39 GMT 51.389282 -1.233290 27,225 172 401 1664
2019-12-04 15:45:36 GMT 51.394741 -1.231842 27,150 190 407 1856
2019-12-04 15:45:33 GMT 51.400330 -1.230392 26,850 189 407 1792
2019-12-04 15:45:30 GMT 51.406754 -1.228790 26,975 188 406 1728
2019-12-04 15:45:27 GMT 51.411438 -1.227722 26,900 188 406 1728
2019-12-04 15:45:24 GMT 51.418297 -1.226425 26,800 186 405 1728
2019-12-04 15:45:21 GMT 51.423416 -1.225662 26,675 183 404 1920
2019-12-04 15:45:18 GMT 51.429977 -1.224976 26,600 183 404 1920
2019-12-04 15:45:15 GMT 51.434822 -1.224594 26,500 183 404 1984
2019-12-04 15:45:12 GMT 51.444832 -1.223831 26,325 183 403 1984
2019-12-04 15:45:09 GMT 51.451584 -1.223268 26,025 182 403 1792
2019-12-04 15:45:06 GMT 51.451584 -1.223268 26,225 182 403 1792
2019-12-04 15:45:03 GMT 51.455978 -1.222971 26,125 181 403 1728
2019-12-04 15:45:00 GMT 51.462021 -1.222749 26,025 179 402 1792
2019-12-04 15:44:57 GMT 51.466805 -1.222839 25,950 178 402 1920
2019-12-04 15:44:54 GMT 51.473881 -1.223145 25,875 177 402 1920
2019-12-04 15:44:51 GMT 51.479736 -1.223639 25,800 174 401 1792
2019-12-04 15:44:48 GMT 51.484268 -1.224233 25,425 172 401 1728
2019-12-04 15:44:45 GMT 51.496216 -1.226460 25,525 171 401 1664
2019-12-04 15:44:42 GMT 51.501114 -1.227646 25,425 169 400 1792
2019-12-04 15:44:36 GMT 51.507164 -1.229401 25,350 169 400 1792
2019-12-04 15:44:33 GMT 51.511414 -1.230766 25,275 167 399 1856
2019-12-04 15:44:30 GMT 51.516815 -1.232696 25,175 164 400 1728
2019-12-04 15:44:27 GMT 51.528076 -1.237521 25,025 163 399 1792
2019-12-04 15:44:24 GMT 51.528076 -1.237521 24,975 163 398 1792
2019-12-04 15:44:21 GMT 51.532700 -1.239748 24,850 163 398 1792
2019-12-04 15:44:18 GMT 51.539749 -1.243237 24,775 163 397 1856
2019-12-04 15:44:15 GMT 51.544872 -1.245728 23,250 163 397 1920
2019-12-04 15:44:12 GMT 51.549225 -1.247839 24,600 162 396 1984
2019-12-04 15:44:08 GMT 51.555347 -1.250916 24,500 162 395 1920
2019-12-04 15:44:05 GMT 51.561958 -1.254120 24,350 163 394 1856
2019-12-04 15:44:02 GMT 51.566284 -1.256256 24,275 162 391 1920
2019-12-04 15:43:59 GMT 51.572430 -1.259232 24,125 162 392 1792
2019-12-04 15:43:56 GMT 51.577469 -1.261720 24,100 162 392 1792
2019-12-04 15:43:50 GMT 51.595642 -1.270702 23,725 162 389 1984
2019-12-04 15:43:47 GMT 51.598919 -1.272278 23,725 162 389 2048
2019-12-04 15:43:43 GMT 51.598919 -1.272278 23,650 162 389 1984
2019-12-04 15:43:40 GMT 51.605072 -1.275305 23,450 162 388 1856
2019-12-04 15:43:37 GMT 51.608555 -1.277084 23,450 163 386 1920
2019-12-04 15:43:34 GMT 51.614182 -1.279833 23,400 162 387 1856
2019-12-04 15:43:31 GMT 51.619720 -1.282580 23,325 163 386 1920
2019-12-04 15:43:28 GMT 51.626152 -1.285706 23,175 162 385 2048
2019-12-04 15:43:25 GMT 51.635651 -1.290436 23,025 162 384 2240
2019-12-04 15:43:22 GMT 51.640537 -1.292801 22,875 162 384 2304
2019-12-04 15:43:19 GMT 51.640537 -1.292801 22,775 162 384 2368
2019-12-04 15:43:16 GMT 51.649704 -1.297352 22,575 162 383 2496
2019-12-04 15:43:13 GMT 51.656342 -1.300618 22,325 162 384 2368
2019-12-04 15:43:10 GMT 51.656342 -1.300618 22,500 162 383 2432
2019-12-04 15:43:07 GMT 51.661972 -1.303439 22,350 162 383 2752
2019-12-04 15:43:04 GMT 51.666458 -1.305666 22,250 162 383 2752
2019-12-04 15:43:01 GMT 51.670029 -1.307447 22,000 162 381 2496
2019-12-04 15:42:58 GMT 51.675751 -1.310268 21,975 162 383 2368
2019-12-04 15:42:55 GMT 51.681381 -1.313015 21,650 162 381 2496
2019-12-04 15:42:52 GMT 51.685600 -1.315079 21,350 162 383 3072
2019-12-04 15:42:49 GMT 51.690208 -1.317368 21,650 162 382 2944
2019-12-04 15:42:46 GMT 51.696957 -1.320724 21,425 162 383 3200
2019-12-04 15:42:43 GMT 51.702621 -1.323556 21,350 162 383 3136
2019-12-04 15:42:40 GMT 51.705734 -1.325114 21,050 162 384 2432
2019-12-04 15:42:37 GMT 51.711483 -1.327972 20,400 162 384 896
2019-12-04 15:42:34 GMT 51.716415 -1.330414 20,950 162 384 1792
2019-12-04 15:42:31 GMT 51.721207 -1.332760 20,875 163 383 1472
2019-12-04 15:42:28 GMT 51.727356 -1.335831 20,775 162 382 1088
2019-12-04 15:42:25 GMT 51.731964 -1.338105 20,700 162 381 960
2019-12-04 15:42:22 GMT 51.736294 -1.340256 20,650 162 381 960
2019-12-04 15:42:19 GMT 51.742538 -1.343301 20,600 162 381 960
2019-12-04 15:42:16 GMT 51.748260 -1.346130 20,575 162 383 960
2019-12-04 15:42:13 GMT 51.751610 -1.347809 20,475 162 384 896
2019-12-04 15:42:10 GMT 51.757736 -1.350873 20,375 162 383 960
2019-12-04 15:42:07 GMT 51.762497 -1.353248 20,450 162 383 896
2019-12-04 15:42:04 GMT 51.765762 -1.354828 20,400 162 381 2688
2019-12-04 15:42:01 GMT 51.778423 -1.361160 20,350 162 384 896
2019-12-04 15:41:55 GMT 51.787689 -1.365738 20,250 162 385 1536
2019-12-04 15:41:52 GMT 51.792160 -1.367946 20,075 162 385 2368
2019-12-04 15:41:46 GMT 51.802166 -1.372910 19,875 162 385 960
2019-12-04 15:41:40 GMT 51.807102 -1.375351 19,975 162 385 1792
2019-12-04 15:41:37 GMT 51.812130 -1.377792 19,825 162 385 2624
2019-12-04 15:41:34 GMT 51.818665 -1.381085 19,725 162 385 2688
2019-12-04 15:41:31 GMT 51.823952 -1.383667 19,475 162 384 2816
2019-12-04 15:41:28 GMT 51.828323 -1.385910 19,425 162 384 2880
2019-12-04 15:41:25 GMT 51.832581 -1.387989 19,275 162 384 2880
2019-12-04 15:41:22 GMT 51.839767 -1.391552 19,150 162 384 2880
2019-12-04 15:41:19 GMT 51.845032 -1.394150 19,025 162 383 2240
2019-12-04 15:41:16 GMT 51.848511 -1.395932 18,875 162 384 2432
2019-12-04 15:41:13 GMT 51.852722 -1.398010 18,825 162 383 2368
2019-12-04 15:41:10 GMT 51.859360 -1.401276 18,625 162 381 2752
2019-12-04 15:41:07 GMT 51.862778 -1.403046 18,400 162 381 2816
2019-12-04 15:41:04 GMT 51.869247 -1.406250 18,425 162 381 2816
2019-12-04 15:41:00 GMT 51.875393 -1.409302 18,275 162 379 2752
2019-12-04 15:40:57 GMT 51.881378 -1.412337 18,125 162 378 2240
2019-12-04 15:40:54 GMT 51.887218 -1.415176 17,950 162 378 2048
2019-12-04 15:40:51 GMT 51.891037 -1.417088 17,925 162 375 1728
2019-12-04 15:40:48 GMT 51.896072 -1.419601 17,800 162 375 1664
2019-12-04 15:40:45 GMT 51.901230 -1.422180 17,700 162 373 1664
2019-12-04 15:40:42 GMT 51.905792 -1.424456 17,625 162 370 1856
2019-12-04 15:40:39 GMT 51.910126 -1.426620 17,450 162 362 3008
2019-12-04 15:40:36 GMT 51.920223 -1.431676 17,275 162 366 1920
2019-12-04 15:40:30 GMT 51.924274 -1.433716 17,325 162 366 1920
2019-12-04 15:40:27 GMT 51.934933 -1.439052 17,075 162 363 3008
2019-12-04 15:40:24 GMT 51.934933 -1.439052 17,000 162 363 3008
2019-12-04 15:40:18 GMT 51.944183 -1.443634 16,550 162 362 3008
2019-12-04 15:40:15 GMT 51.948154 -1.445644 16,500 162 361 3008
2019-12-04 15:40:12 GMT 51.954391 -1.448746 16,275 162 361 3008
2019-12-04 15:40:08 GMT 51.964310 -1.453727 16,025 162 360 3072
2019-12-04 15:40:02 GMT 51.968777 -1.456002 16,025 162 359 3072
2019-12-04 15:39:59 GMT 51.978836 -1.460953 15,700 162 359 2816
2019-12-04 15:39:53 GMT 51.988312 -1.465759 15,400 162 358 2880
2019-12-04 15:39:47 GMT 51.999298 -1.471252 15,075 162 357 3072
2019-12-04 15:39:44 GMT 51.999298 -1.471252 14,975 162 357 3136
2019-12-04 15:39:41 GMT 52.003510 -1.473389 14,775 162 356 3136
2019-12-04 15:39:38 GMT 52.008362 -1.475830 14,675 162 356 3072
2019-12-04 15:39:35 GMT 52.013561 -1.478446 14,225 162 355 3072
2019-12-04 15:39:31 GMT 52.018433 -1.480942 14,225 162 355 3008
2019-12-04 15:39:28 GMT 52.027405 -1.485443 14,175 162 354 2944
2019-12-04 15:39:25 GMT 52.027405 -1.485443 13,975 162 352 2432
2019-12-04 15:39:22 GMT 52.032715 -1.488113 13,900 162 352 2432
2019-12-04 15:39:19 GMT 52.038883 -1.491237 13,825 162 351 2432
2019-12-04 15:39:16 GMT 52.041260 -1.492414 13,650 162 345 2944
2019-12-04 15:39:13 GMT 52.047497 -1.495632 13,550 162 347 2880
2019-12-04 15:39:10 GMT 52.050385 -1.497044 13,425 162 345 2880
2019-12-04 15:39:07 GMT 52.059677 -1.501770 13,200 162 345 2816
2019-12-04 15:39:01 GMT 52.065418 -1.504656 13,075 162 344 2688
2019-12-04 15:38:58 GMT 52.069290 -1.506653 12,825 162 342 2624
2019-12-04 15:38:55 GMT 52.074738 -1.509399 12,625 162 341 2368
2019-12-04 15:38:52 GMT 52.081665 -1.512896 12,500 162 338 2304
2019-12-04 15:38:46 GMT 52.086510 -1.515407 12,325 162 336 2560
2019-12-04 15:38:43 GMT 52.092957 -1.518707 12,225 162 334 2496
2019-12-04 15:38:40 GMT 52.097580 -1.521072 12,075 162 334 2496
2019-12-04 15:38:37 GMT 52.101654 -1.523132 12,000 162 334 2496
2019-12-04 15:38:34 GMT 52.106384 -1.525530 11,750 162 331 2560
2019-12-04 15:38:31 GMT 52.109879 -1.527257 11,525 162 328 2048
2019-12-04 15:38:28 GMT 52.113647 -1.529160 11,550 162 329 2368
2019-12-04 15:38:25 GMT 52.117836 -1.531259 11,425 163 325 1344
2019-12-04 15:38:21 GMT 52.124130 -1.534424 11,425 163 325 1216
2019-12-04 15:38:18 GMT 52.134411 -1.539498 11,300 162 317 832
2019-12-04 15:38:15 GMT 52.136627 -1.540604 11,275 162 315 832
2019-12-04 15:38:09 GMT 52.145256 -1.544913 11,175 162 307 1088
2019-12-04 15:38:03 GMT 52.149353 -1.546953 11,075 162 299 960
2019-12-04 15:38:00 GMT 52.152740 -1.548691 11,050 162 296 832
2019-12-04 15:37:57 GMT 52.157272 -1.550903 11,000 162 290 896
2019-12-04 15:37:54 GMT 52.161575 -1.553040 10,950 163 287 1152
2019-12-04 15:37:51 GMT 52.165329 -1.554947 10,650 162 279 2432
2019-12-04 15:37:48 GMT 52.168438 -1.556527 10,800 162 281 2112
2019-12-04 15:37:45 GMT 52.172302 -1.558411 10,725 162 279 2432
2019-12-04 15:37:42 GMT 52.175797 -1.560216 10,500 162 277 2624
2019-12-04 15:37:39 GMT 52.179100 -1.561863 10,250 162 277 2624
2019-12-04 15:37:36 GMT 52.182777 -1.563668 10,250 162 276 2752
2019-12-04 15:37:33 GMT 52.187210 -1.565933 10,150 162 272 2752
2019-12-04 15:37:30 GMT 52.190086 -1.567357 9,925 162 275 2624
2019-12-04 15:37:27 GMT 52.193996 -1.569318 9,925 162 274 2560
2019-12-04 15:37:24 GMT 52.197720 -1.571202 9,625 162 272 2752
2019-12-04 15:37:21 GMT 52.201214 -1.573007 9,575 162 272 2944
2019-12-04 15:37:17 GMT 52.206799 -1.575832 9,325 162 271 3200
2019-12-04 15:37:14 GMT 52.209320 -1.577072 8,075 162 269 3520
2019-12-04 15:37:11 GMT 52.213409 -1.579206 9,100 162 271 3072
2019-12-04 15:37:08 GMT 52.220444 -1.582794 8,900 162 269 3008
2019-12-04 15:37:05 GMT 52.220444 -1.582794 8,850 162 270 2944
2019-12-04 15:37:01 GMT 52.224720 -1.584935 8,200 162 271 3456
2019-12-04 15:36:58 GMT 52.227840 -1.586583 8,525 162 269 3648
2019-12-04 15:36:55 GMT 52.236221 -1.590820 8,175 162 271 3456
2019-12-04 15:36:52 GMT 52.238503 -1.591997 7,950 162 272 3392
2019-12-04 15:36:45 GMT 52.243881 -1.594772 7,575 160 272 3392
2019-12-04 15:36:42 GMT 52.247955 -1.596985 7,350 158 273 3520
2019-12-04 15:36:39 GMT 52.251209 -1.598982 7,350 158 274 3392
2019-12-04 15:36:36 GMT 52.254822 -1.601334 7,100 158 272 2816
2019-12-04 15:36:33 GMT 52.259491 -1.604385 7,000 157 271 2752
2019-12-04 15:36:30 GMT 52.263062 -1.606750 6,900 157 271 2816
2019-12-04 15:36:27 GMT 52.265221 -1.608241 6,625 157 270 2880
2019-12-04 15:36:24 GMT 52.268993 -1.610674 6,650 157 270 2880
2019-12-04 15:36:21 GMT 52.272171 -1.612778 6,500 157 269 2816
2019-12-04 15:36:18 GMT 52.279419 -1.617658 6,275 157 266 2816
2019-12-04 15:36:15 GMT 52.282585 -1.619777 6,050 158 230 896
2019-12-04 15:36:09 GMT 52.286591 -1.622467 5,900 157 264 2176
2019-12-04 15:36:05 GMT 52.290127 -1.624799 5,825 157 261 1344
2019-12-04 15:36:02 GMT 52.293850 -1.627232 5,725 157 252 1088
2019-12-04 15:35:59 GMT 52.296570 -1.629028 5,700 157 250 1152
2019-12-04 15:35:56 GMT 52.301437 -1.632254 5,575 157 243 1600
2019-12-04 15:35:53 GMT 52.306141 -1.635393 5,475 157 236 1344
2019-12-04 15:35:47 GMT 52.314472 -1.640887 5,375 158 232 1024
2019-12-04 15:35:43 GMT 52.314472 -1.640887 5,325 157 231 896
2019-12-04 15:35:40 GMT 52.316010 -1.641907 5,275 157 231 960
2019-12-04 15:35:36 GMT 52.320107 -1.644575 5,225 157 231 960
2019-12-04 15:35:33 GMT 52.323040 -1.646537 5,200 157 231 960
2019-12-04 15:35:30 GMT 52.326019 -1.648499 5,100 158 230 896
2019-12-04 15:35:26 GMT 52.329849 -1.651001 4,700 153 224 1920
2019-12-04 15:35:23 GMT 52.336304 -1.655273 4,975 158 230 960
2019-12-04 15:35:20 GMT 52.336304 -1.655273 4,950 158 230 960
2019-12-04 15:35:14 GMT 52.343124 -1.659698 4,850 158 228 1280
2019-12-04 15:35:11 GMT 52.345184 -1.660995 4,750 156 225 1856
2019-12-04 15:35:08 GMT 52.348114 -1.662979 4,700 156 225 1856
2019-12-04 15:35:05 GMT 52.351089 -1.665039 4,375 153 222 1920
2019-12-04 15:35:02 GMT 52.353439 -1.666783 4,550 154 224 1856
2019-12-04 15:34:59 GMT 52.357487 -1.670000 4,500 153 224 1920
2019-12-04 15:34:55 GMT 52.363213 -1.674630 4,300 153 223 1920
2019-12-04 15:34:52 GMT 52.363213 -1.674630 4,150 153 221 1984
2019-12-04 15:34:48 GMT 52.368984 -1.679417 3,950 152 220 2496
2019-12-04 15:34:41 GMT 52.373081 -1.682792 3,625 154 217 3072
2019-12-04 15:34:38 GMT 52.375946 -1.685181 3,625 155 217 3200
2019-12-04 15:34:35 GMT 52.378143 -1.686783 3,475 156 217 3520
2019-12-04 15:34:31 GMT 52.382301 -1.689540 3,250 159 218 3520
2019-12-04 15:34:28 GMT 52.384644 -1.690903 3,050 161 218 3456
2019-12-04 15:34:25 GMT 52.387619 -1.692429 2,450 166 219 3200
2019-12-04 15:34:22 GMT 52.391052 -1.693935 2,775 165 218 3328
2019-12-04 15:34:19 GMT 52.394485 -1.695251 2,600 166 218 3008
2019-12-04 15:34:15 GMT 52.397942 -1.696524 2,375 166 216 2048
2019-12-04 15:34:12 GMT 52.400757 -1.697540 2,250 165 214 1792
2019-12-04 15:34:09 GMT 52.409409 -1.701813 2,125 162 211 1664
2019-12-04 15:34:03 GMT 52.411907 -1.703430 2,000 157 204 1088
2019-12-04 15:34:00 GMT 52.416275 -1.706848 1,825 150 193 896
2019-12-04 15:33:55 GMT 52.416275 -1.706848 1,900 151 197 1024
2019-12-04 15:33:51 GMT 52.420258 -1.710587 1,825 147 183 960
2019-12-04 15:33:43 GMT 52.425594 -1.716221 1,625 146 170 1664
2019-12-04 15:33:39 GMT 52.428062 -1.718890 1,600 146 161 2304
2019-12-04 15:33:33 GMT 52.431087 -1.722107 1,450 146 164 1920
2019-12-04 15:33:27 GMT 52.434860 -1.726303 1,275 145 158 2432
2019-12-04 15:33:22 GMT 52.438068 -1.730033 975 144 157 2496
2019-12-04 15:33:17 GMT 52.442493 -1.735134 625 144 157 2688
2019-12-04 15:33:06 GMT 52.447845 -1.741333 250 145 154 1088
2019-12-04 15:32:54 GMT 52.453903 -1.748047 200 145 113 64
2019-12-04 15:30:50 GMT 52.461857 -1.753635 0 326 10
2019-12-04 15:30:33 GMT 52.461159 -1.752849 0 326 12
2019-12-04 15:30:27 GMT 52.460873 -1.752529 0 326 13
2019-12-04 15:30:08 GMT 52.459949 -1.751495 0 326 13
2019-12-04 15:30:04 GMT 52.459785 -1.751319 0 326 15
2019-12-04 15:29:55 GMT 52.459190 -1.750660 0 326 21
2019-12-04 15:29:45 GMT 52.458275 -1.749649 0 326 26
2019-12-04 15:27:54 GMT 52.449707 -1.738155 0 326 18
2019-12-04 15:27:44 GMT 52.449093 -1.737468 0 326 15
2019-12-04 15:27:35 GMT 52.448650 -1.736889 0 286 11
2019-12-04 15:27:25 GMT 52.448765 -1.736075 0 233 14
2019-12-04 15:27:14 GMT 52.449108 -1.735249 0 239 12
2019-12-04 15:26:53 GMT 52.449451 -1.734047 0 239 4
2019-12-04 15:26:38 GMT 52.449532 -1.734104 0 239 0
2019-12-04 15:26:32 GMT 52.449532 -1.734066 0 239 0
2019-12-04 15:26:02 GMT 52.449509 -1.733913 0 239 0
2019-12-04 15:25:27 GMT 52.449497 -1.733894 0 239 0
2019-12-04 15:25:17 GMT 52.449497 -1.733898 0 239 0
2019-12-04 15:24:58 GMT 52.449509 -1.733894 0 239 0
2019-12-04 15:24:47 GMT 52.449497 -1.733898 0 239 0
2019-12-04 15:24:32 GMT 52.449509 -1.733894 0 239 0
2019-12-04 15:24:14 GMT 52.449497 -1.733898 0 239 0
2019-12-04 15:24:09 GMT 52.449509 -1.733894 0 239 0
2019-12-04 15:24:01 GMT 52.449497 -1.733898 0 239 0
2019-12-04 15:23:52 GMT 52.449486 -1.733952 0 239 3

Making use of Plane Finder data

You are free to use the raw flight data, aircraft information and images provided in this report for your own purposes provided the data is correctly attributed to Plane Finder. We ask that you please credit Plane Finder and link to planefinder.net in close proximity to the content.

Optionally one of the following logos (no smaller then 150x24px) can be used and must link to planefinder.net

Embedding the Plane Finder map

You are welcome to embed the Plane Finder playback map on your website to offer visitors a more interactive experience. We suggest using the following HTML code:

<iframe src="//planefinder.net/data/report/FR2156-EI-DPF-7700-squawk-2019-12-04/map" width="800" height="600" seamless="seamless"></iframe>

Where our data comes from

Plane Finder has a global network of data feeds and antenna radars that receive data broadcast directly from aircraft. The primary technologies used are ADS-B and MLAT. We also show feeds from the FAA and a FLARM glider feed.

Click here to find out more about the Plane Finder network.

How we collect our data